Observation data for Throckmorton on 03/13/2018      Previous  Date       Current Mesonet Observations  Soil Data  Daily Summary Page  Observations in Plain Language
KTH1 130501Z 28002KT 05/00 A3028 RMK A01 T00510004  RH  072%=      5-min Rain = 0
KTH1 130502Z 28002KT 05/01 A3028 RMK A01 T00510005  RH  072%=      5-min Rain = 0
KTH1 130503Z 28002KT 05/01 A3028 RMK A01 T00510006  RH  073%=      5-min Rain = 0
KTH1 130504Z 27002KT 05/01 A3028 RMK A01 T00510007  RH  073%=      5-min Rain = 0
KTH1 130505Z 27002KT 05/01 A3028 RMK A01 T00510008  RH  073%=      5-min Rain = 0
KTH1 130506Z 27002KT 05/01 A3028 RMK A01 T00510009  RH  074%=      5-min Rain = 0
KTH1 130507Z 27002KT 05/01 A3028 RMK A01 T00520010  RH  074%=      5-min Rain = 0
KTH1 130508Z 27002KT 05/01 A3028 RMK A01 T00510009  RH  074%=      5-min Rain = 0
KTH1 130509Z 27002KT 05/01 A3028 RMK A01 T00510008  RH  074%=      5-min Rain = 0
KTH1 130510Z 27002KT 05/01 A3028 RMK A01 T00510007  RH  073%=      5-min Rain = 0
KTH1 130511Z 28002KT 05/01 A3028 RMK A01 T00500006  RH  073%=      5-min Rain = 0
KTH1 130512Z 27001KT 05/01 A3028 RMK A01 T00500006  RH  073%=      5-min Rain = 0
KTH1 130513Z 28001KT 05/01 A3028 RMK A01 T00500006  RH  073%=      5-min Rain = 0
KTH1 130514Z 28002KT 05/01 A3028 RMK A01 T00500006  RH  073%=      5-min Rain = 0
KTH1 130515Z 28001KT 05/01 A3028 RMK A01 T00500005  RH  073%=      5-min Rain = 0
KTH1 130516Z 28001KT 05/00 A3028 RMK A01 T00500004  RH  072%=      5-min Rain = 0
KTH1 130517Z 28001KT 05/00 A3028 RMK A01 T00490001  RH  071%=      5-min Rain = 0
KTH1 130518Z 28001KT 05/00 A3028 RMK A01 T004800-0  RH  071%=      5-min Rain = 0
KTH1 130519Z 28001KT 05/00 A3028 RMK A01 T004800-0  RH  071%=      5-min Rain = 0
KTH1 130520Z 28001KT 05/M00 A3028 RMK A01 T00481001  RH  071%=      5-min Rain = 0
KTH1 130521Z 28001KT 05/M00 A3028 RMK A01 T00471001  RH  071%=      5-min Rain = 0
KTH1 130522Z 28001KT 05/00 A3028 RMK A01 T00470002  RH  072%=      5-min Rain = 0
KTH1 130523Z 28001KT 05/00 A3028 RMK A01 T00470003  RH  073%=      5-min Rain = 0
KTH1 130524Z 27002KT 05/01 A3028 RMK A01 T00470005  RH  074%=      5-min Rain = 0
KTH1 130525Z 26002KT 05/01 A3028 RMK A01 T00470005  RH  074%=      5-min Rain = 0
KTH1 130526Z 27002KT 05/00 A3028 RMK A01 T00470003  RH  073%=      5-min Rain = 0
KTH1 130527Z 26002KT 05/00 A3028 RMK A01 T00470003  RH  073%=      5-min Rain = 0
KTH1 130528Z 27001KT 05/00 A3028 RMK A01 T00460003  RH  074%=      5-min Rain = 0
KTH1 130529Z 26001KT 05/00 A3028 RMK A01 T00450002  RH  073%=      5-min Rain = 0
KTH1 130530Z 27001KT 05/00 A3028 RMK A01 T00450002  RH  073%=      5-min Rain = 0
KTH1 130531Z 27001KT 05/00 A3028 RMK A01 T00450001  RH  073%=      5-min Rain = 0
KTH1 130532Z 27001KT 05/00 A3028 RMK A01 T00450002  RH  074%=      5-min Rain = 0
KTH1 130533Z 27002KT 04/00 A3028 RMK A01 T00440003  RH  075%=      5-min Rain = 0
KTH1 130534Z 27002KT 04/00 A3028 RMK A01 T00440004  RH  075%=      5-min Rain = 0
KTH1 130535Z 26002KT 04/00 A3028 RMK A01 T00430004  RH  076%=      5-min Rain = 0
KTH1 130536Z 26002KT 04/00 A3028 RMK A01 T00430003  RH  075%=      5-min Rain = 0
KTH1 130537Z 26002KT 04/00 A3028 RMK A01 T00430002  RH  075%=      5-min Rain = 0
KTH1 130538Z 26002KT 04/00 A3028 RMK A01 T00430001  RH  074%=      5-min Rain = 0
KTH1 130539Z 26002KT 04/00 A3028 RMK A01 T00430000  RH  074%=      5-min Rain = 0
KTH1 130540Z 27002KT 04/00 A3028 RMK A01 T004300-0  RH  073%=      5-min Rain = 0
KTH1 130541Z 27002KT 04/00 A3028 RMK A01 T004300-0  RH  073%=      5-min Rain = 0
KTH1 130542Z 27001KT 04/00 A3028 RMK A01 T00430000  RH  074%=      5-min Rain = 0
KTH1 130543Z 27001KT 04/00 A3028 RMK A01 T00430002  RH  074%=      5-min Rain = 0
KTH1 130544Z 27001KT 04/00 A3028 RMK A01 T00440003  RH  075%=      5-min Rain = 0
KTH1 130545Z 27001KT 04/00 A3028 RMK A01 T00440004  RH  076%=      5-min Rain = 0
KTH1 130546Z 27001KT 04/01 A3028 RMK A01 T00440005  RH  076%=      5-min Rain = 0
KTH1 130547Z 28001KT 04/01 A3028 RMK A01 T00430007  RH  077%=      5-min Rain = 0
KTH1 130548Z 28000KT 04/01 A3028 RMK A01 T00440008  RH  078%=      5-min Rain = 0
KTH1 130549Z 29000KT 04/01 A3028 RMK A01 T00430009  RH  078%=      5-min Rain = 0
KTH1 130550Z 00000KT 04/01 A3028 RMK A01 T00440010  RH  079%=      5-min Rain = 0
KTH1 130551Z 00000KT 04/01 A3028 RMK A01 T00430010  RH  079%=      5-min Rain = 0
KTH1 130552Z 00000KT 04/01 A3028 RMK A01 T00430010  RH  079%=      5-min Rain = 0
KTH1 130553Z 10000KT 04/01 A3028 RMK A01 T00430008  RH  078%=      5-min Rain = 0
KTH1 130554Z 07000KT 04/01 A3028 RMK A01 T00430007  RH  077%=      5-min Rain = 0
KTH1 130555Z 07000KT 04/01 A3028 RMK A01 T00430005  RH  076%=      5-min Rain = 0
KTH1 130556Z 00000KT 04/00 A3028 RMK A01 T00430004  RH  076%=      5-min Rain = 0
KTH1 130557Z 00000KT 04/01 A3028 RMK A01 T00420005  RH  077%=      5-min Rain = 0
KTH1 130558Z 00000KT 04/01 A3028 RMK A01 T00430007  RH  077%=      5-min Rain = 0
KTH1 130559Z 00000KT 04/01 A3028 RMK A01 T00430005  RH  076%=      5-min Rain = 0
KTH1 130600Z 00000KT 04/01 A3028 RMK A01 T00440005  RH  076%=      5-min Rain = 0
KTH1 130601Z 00000KT 04/01 A3028 RMK A01 T00440005  RH  076%=      5-min Rain = 0
KTH1 130602Z 00000KT 04/01 A3028 RMK A01 T00440007  RH  077%=      5-min Rain = 0
KTH1 130603Z 00000KT 04/01 A3028 RMK A01 T00440007  RH  077%=      5-min Rain = 0
KTH1 130604Z 00000KT 04/01 A3027 RMK A01 T00440008  RH  077%=      5-min Rain = 0
KTH1 130605Z 00000KT 04/01 A3027 RMK A01 T00440009  RH  078%=      5-min Rain = 0
KTH1 130606Z 00000KT 04/01 A3027 RMK A01 T00440009  RH  078%=      5-min Rain = 0
KTH1 130607Z 00000KT 04/01 A3027 RMK A01 T00440008  RH  078%=      5-min Rain = 0
KTH1 130608Z 00000KT 05/01 A3027 RMK A01 T00450008  RH  077%=      5-min Rain = 0
KTH1 130609Z 00000KT 04/01 A3027 RMK A01 T00440007  RH  077%=      5-min Rain = 0
KTH1 130610Z 10001KT 04/01 A3027 RMK A01 T00440007  RH  077%=      5-min Rain = 0
KTH1 130611Z 11000KT 04/01 A3027 RMK A01 T00440005  RH  076%=      5-min Rain = 0
KTH1 130612Z 11000KT 05/00 A3027 RMK A01 T00450004  RH  075%=      5-min Rain = 0
KTH1 130613Z 11000KT 04/01 A3027 RMK A01 T00440005  RH  075%=      5-min Rain = 0
KTH1 130614Z 00000KT 04/01 A3027 RMK A01 T00440007  RH  077%=      5-min Rain = 0
KTH1 130615Z 00000KT 05/01 A3027 RMK A01 T00450008  RH  077%=      5-min Rain = 0
KTH1 130616Z 00000KT 05/01 A3027 RMK A01 T00450010  RH  078%=      5-min Rain = 0
KTH1 130617Z 00000KT 05/01 A3027 RMK A01 T00450010  RH  078%=      5-min Rain = 0
KTH1 130618Z 28000KT 05/01 A3027 RMK A01 T00450009  RH  077%=      5-min Rain = 0
KTH1 130619Z 28001KT 05/01 A3027 RMK A01 T00460009  RH  077%=      5-min Rain = 0
KTH1 130620Z 29001KT 05/01 A3027 RMK A01 T00460009  RH  077%=      5-min Rain = 0
KTH1 130621Z 28001KT 05/01 A3027 RMK A01 T00470009  RH  077%=      5-min Rain = 0
KTH1 130622Z 29001KT 05/01 A3027 RMK A01 T00470011  RH  077%=      5-min Rain = 0
KTH1 130623Z 31001KT 05/01 A3027 RMK A01 T00470012  RH  078%=      5-min Rain = 0
KTH1 130624Z 28001KT 05/01 A3027 RMK A01 T00480013  RH  078%=      5-min Rain = 0
KTH1 130625Z 29001KT 05/02 A3027 RMK A01 T00480015  RH  079%=      5-min Rain = 0
KTH1 130626Z 28001KT 05/02 A3027 RMK A01 T00480016  RH  080%=      5-min Rain = 0
KTH1 130627Z 28001KT 05/02 A3027 RMK A01 T00490017  RH  080%=      5-min Rain = 0
KTH1 130628Z 28001KT 05/02 A3027 RMK A01 T00480016  RH  080%=      5-min Rain = 0
KTH1 130629Z 32000KT 05/02 A3027 RMK A01 T00490016  RH  080%=      5-min Rain = 0
KTH1 130630Z 32001KT 05/02 A3027 RMK A01 T00490016  RH  079%=      5-min Rain = 0
KTH1 130631Z 29000KT 05/02 A3027 RMK A01 T00490016  RH  079%=      5-min Rain = 0
KTH1 130632Z 03000KT 05/02 A3027 RMK A01 T00490016  RH  079%=      5-min Rain = 0
KTH1 130633Z 03001KT 05/02 A3027 RMK A01 T00490016  RH  080%=      5-min Rain = 0
KTH1 130634Z 00000KT 05/02 A3027 RMK A01 T00490017  RH  080%=      5-min Rain = 0
KTH1 130635Z 30000KT 05/02 A3027 RMK A01 T00490016  RH  079%=      5-min Rain = 0
KTH1 130636Z 30000KT 05/02 A3027 RMK A01 T00500017  RH  079%=      5-min Rain = 0
KTH1 130637Z 29001KT 05/02 A3027 RMK A01 T00510017  RH  079%=      5-min Rain = 0
KTH1 130638Z 28001KT 05/02 A3027 RMK A01 T00510015  RH  078%=      5-min Rain = 0
KTH1 130639Z 29001KT 05/02 A3027 RMK A01 T00520016  RH  078%=      5-min Rain = 0
KTH1 130640Z 27001KT 05/02 A3027 RMK A01 T00520016  RH  078%=      5-min Rain = 0
KTH1 130641Z 26001KT 05/02 A3027 RMK A01 T00520017  RH  078%=      5-min Rain = 0
KTH1 130642Z 27001KT 05/02 A3027 RMK A01 T00530017  RH  078%=      5-min Rain = 0
KTH1 130643Z 29001KT 05/02 A3027 RMK A01 T00530018  RH  078%=      5-min Rain = 0
KTH1 130644Z 29000KT 05/02 A3027 RMK A01 T00530017  RH  077%=      5-min Rain = 0
KTH1 130645Z 29000KT 05/02 A3027 RMK A01 T00540017  RH  077%=      5-min Rain = 0
KTH1 130646Z 29000KT 05/02 A3027 RMK A01 T00540019  RH  078%=      5-min Rain = 0
KTH1 130647Z 00000KT 06/02 A3027 RMK A01 T00550020  RH  078%=      5-min Rain = 0
KTH1 130648Z 00000KT 06/02 A3027 RMK A01 T00550019  RH  078%=      5-min Rain = 0
KTH1 130649Z 09000KT 06/02 A3027 RMK A01 T00550019  RH  077%=      5-min Rain = 0
KTH1 130650Z 09001KT 06/02 A3027 RMK A01 T00550018  RH  077%=      5-min Rain = 0
KTH1 130651Z 10001KT 06/02 A3027 RMK A01 T00550017  RH  076%=      5-min Rain = 0
KTH1 130652Z 10002KT 06/02 A3027 RMK A01 T00550016  RH  076%=      5-min Rain = 0
KTH1 130653Z 10002KT 06/02 A3027 RMK A01 T00550017  RH  076%=      5-min Rain = 0
KTH1 130654Z 09002KT 06/02 A3027 RMK A01 T00550017  RH  076%=      5-min Rain = 0
KTH1 130655Z 09001KT 06/02 A3027 RMK A01 T00550018  RH  077%=      5-min Rain = 0
KTH1 130656Z 08002KT 06/02 A3027 RMK A01 T00550018  RH  077%=      5-min Rain = 0
KTH1 130657Z 07001KT 06/02 A3027 RMK A01 T00560020  RH  078%=      5-min Rain = 0
KTH1 130658Z 08002KT 06/02 A3027 RMK A01 T00570021  RH  078%=      5-min Rain = 0
KTH1 130659Z 07001KT 06/02 A3027 RMK A01 T00570016  RH  075%=      5-min Rain = 0
KTH1 130700Z 07001KT 06/02 A3027 RMK A01 T00590016  RH  074%=      5-min Rain = 0
KTH1 130701Z 06001KT 06/01 A3027 RMK A01 T00600014  RH  073%=      5-min Rain = 0
KTH1 130702Z 04001KT 06/02 A3027 RMK A01 T00610022  RH  076%=      5-min Rain = 0
KTH1 130703Z 03000KT 06/03 A3027 RMK A01 T00610025  RH  078%=      5-min Rain = 0
KTH1 130704Z 34000KT 06/03 A3027 RMK A01 T00620026  RH  078%=      5-min Rain = 0
KTH1 130705Z 01001KT 06/03 A3027 RMK A01 T00620026  RH  078%=      5-min Rain = 0
KTH1 130706Z 34000KT 06/02 A3028 RMK A01 T00620024  RH  076%=      5-min Rain = 0
KTH1 130707Z 33001KT 06/02 A3028 RMK A01 T00630022  RH  075%=      5-min Rain = 0
KTH1 130708Z 30001KT 06/02 A3028 RMK A01 T00630021  RH  074%=      5-min Rain = 0
KTH1 130709Z 30001KT 06/02 A3028 RMK A01 T00630021  RH  074%=      5-min Rain = 0
KTH1 130710Z 30001KT 06/02 A3028 RMK A01 T00610020  RH  075%=      5-min Rain = 0
KTH1 130711Z 31000KT 06/02 A3028 RMK A01 T00590019  RH  075%=      5-min Rain = 0
KTH1 130712Z 34000KT 06/02 A3028 RMK A01 T00590019  RH  076%=      5-min Rain = 0
KTH1 130713Z 07000KT 06/02 A3028 RMK A01 T00570019  RH  077%=      5-min Rain = 0
KTH1 130714Z 03000KT 06/02 A3028 RMK A01 T00550018  RH  077%=      5-min Rain = 0
KTH1 130715Z 03001KT 05/02 A3028 RMK A01 T00520015  RH  077%=      5-min Rain = 0
KTH1 130716Z 03001KT 05/01 A3028 RMK A01 T00510013  RH  077%=      5-min Rain = 0
KTH1 130717Z 02001KT 05/01 A3028 RMK A01 T00500014  RH  077%=      5-min Rain = 0
KTH1 130718Z 02001KT 05/01 A3028 RMK A01 T00500013  RH  077%=      5-min Rain = 0
KTH1 130719Z 02001KT 05/01 A3028 RMK A01 T00500013  RH  077%=      5-min Rain = 0
KTH1 130720Z 02001KT 05/01 A3028 RMK A01 T00500013  RH  077%=      5-min Rain = 0
KTH1 130721Z 02001KT 05/01 A3027 RMK A01 T00500012  RH  077%=      5-min Rain = 0
KTH1 130722Z 02001KT 05/01 A3027 RMK A01 T00500010  RH  076%=      5-min Rain = 0
KTH1 130723Z 02001KT 05/01 A3027 RMK A01 T00500009  RH  075%=      5-min Rain = 0
KTH1 130724Z 02001KT 05/01 A3027 RMK A01 T00500008  RH  074%=      5-min Rain = 0
KTH1 130725Z 01001KT 05/01 A3027 RMK A01 T00500006  RH  073%=      5-min Rain = 0
KTH1 130726Z 03000KT 05/00 A3027 RMK A01 T00510002  RH  071%=      5-min Rain = 0
KTH1 130727Z 00000KT 05/M00 A3027 RMK A01 T00511004  RH  068%=      5-min Rain = 0
KTH1 130728Z 00000KT 05/00 A3027 RMK A01 T005200-0  RH  069%=      5-min Rain = 0
KTH1 130729Z 00000KT 05/01 A3027 RMK A01 T00540009  RH  073%=      5-min Rain = 0
KTH1 130730Z 07001KT 06/01 A3027 RMK A01 T00550008  RH  072%=      5-min Rain = 0
KTH1 130731Z 15000KT 06/01 A3027 RMK A01 T00570012  RH  073%=      5-min Rain = 0
KTH1 130732Z 10000KT 06/02 A3027 RMK A01 T00580015  RH  074%=      5-min Rain = 0
KTH1 130733Z 09001KT 06/02 A3027 RMK A01 T00580016  RH  075%=      5-min Rain = 0
KTH1 130734Z 10001KT 06/02 A3027 RMK A01 T00590015  RH  073%=      5-min Rain = 0
KTH1 130735Z 10001KT 06/01 A3027 RMK A01 T00590010  RH  071%=      5-min Rain = 0
KTH1 130736Z 09001KT 06/00 A3027 RMK A01 T00590004  RH  068%=      5-min Rain = 0
KTH1 130737Z 09001KT 06/00 A3027 RMK A01 T00590001  RH  066%=      5-min Rain = 0
KTH1 130738Z 08002KT 06/M00 A3027 RMK A01 T00601003  RH  064%=      5-min Rain = 0
KTH1 130739Z 08002KT 06/M01 A3027 RMK A01 T00601008  RH  062%=      5-min Rain = 0
KTH1 130740Z 09002KT 06/M01 A3027 RMK A01 T00611009  RH  061%=      5-min Rain = 0
KTH1 130741Z 08002KT 06/M01 A3027 RMK A01 T00631009  RH  060%=      5-min Rain = 0
KTH1 130742Z 08002KT 06/M01 A3027 RMK A01 T00641011  RH  059%=      5-min Rain = 0
KTH1 130743Z 08002KT 06/M00 A3027 RMK A01 T00641004  RH  062%=      5-min Rain = 0
KTH1 130744Z 08002KT 07/01 A3027 RMK A01 T00650006  RH  066%=      5-min Rain = 0
KTH1 130745Z 09002KT 07/01 A3027 RMK A01 T00650005  RH  066%=      5-min Rain = 0
KTH1 130746Z 08001KT 07/01 A3027 RMK A01 T00650005  RH  066%=      5-min Rain = 0
KTH1 130747Z 09001KT 07/01 A3027 RMK A01 T00650007  RH  067%=      5-min Rain = 0
KTH1 130748Z 09001KT 06/01 A3027 RMK A01 T00640008  RH  067%=      5-min Rain = 0
KTH1 130749Z 09001KT 07/01 A3027 RMK A01 T00650006  RH  066%=      5-min Rain = 0
KTH1 130750Z 09002KT 06/00 A3027 RMK A01 T00640001  RH  064%=      5-min Rain = 0
KTH1 130751Z 10001KT 06/M00 A3027 RMK A01 T00641004  RH  062%=      5-min Rain = 0
KTH1 130752Z 11001KT 06/M01 A3027 RMK A01 T00641007  RH  060%=      5-min Rain = 0
KTH1 130753Z 12002KT 06/M01 A3027 RMK A01 T00641009  RH  059%=      5-min Rain = 0
KTH1 130754Z 11002KT 06/M01 A3027 RMK A01 T00641008  RH  060%=      5-min Rain = 0
KTH1 130755Z 10002KT 07/M00 A3027 RMK A01 T00651002  RH  062%=      5-min Rain = 0
KTH1 130756Z 10002KT 07/00 A3027 RMK A01 T00660001  RH  064%=      5-min Rain = 0
KTH1 130757Z 10002KT 07/M00 A3026 RMK A01 T00661002  RH  062%=      5-min Rain = 0
KTH1 130758Z 10002KT 07/M01 A3026 RMK A01 T00661006  RH  060%=      5-min Rain = 0
KTH1 130759Z 10002KT 07/M00 A3026 RMK A01 T00661003  RH  061%=      5-min Rain = 0
KTH1 130800Z 09003KT 07/M01 A3026 RMK A01 T00671007  RH  059%=      5-min Rain = 0
KTH1 130801Z 09003KT 07/M01 A3026 RMK A01 T00671011  RH  057%=      5-min Rain = 0
KTH1 130802Z 09003KT 07/M01 A3026 RMK A01 T00681010  RH  057%=      5-min Rain = 0
KTH1 130803Z 09003KT 07/M00 A3026 RMK A01 T00681004  RH  060%=      5-min Rain = 0
KTH1 130804Z 09003KT 07/00 A3026 RMK A01 T00680002  RH  062%=      5-min Rain = 0
KTH1 130805Z 09003KT 07/00 A3026 RMK A01 T00680002  RH  063%=      5-min Rain = 0
KTH1 130806Z 09002KT 07/00 A3026 RMK A01 T00680004  RH  064%=      5-min Rain = 0
KTH1 130807Z 09002KT 07/00 A3026 RMK A01 T00670003  RH  064%=      5-min Rain = 0
KTH1 130808Z 08002KT 07/00 A3026 RMK A01 T00660003  RH  064%=      5-min Rain = 0
KTH1 130809Z 09001KT 07/00 A3026 RMK A01 T00660003  RH  064%=      5-min Rain = 0
KTH1 130810Z 09002KT 07/00 A3026 RMK A01 T00660003  RH  064%=      5-min Rain = 0
KTH1 130811Z 09001KT 07/00 A3026 RMK A01 T00660002  RH  064%=      5-min Rain = 0
KTH1 130812Z 10001KT 07/00 A3026 RMK A01 T00660002  RH  064%=      5-min Rain = 0
KTH1 130813Z 10002KT 07/00 A3026 RMK A01 T00660001  RH  063%=      5-min Rain = 0
KTH1 130814Z 09001KT 07/M00 A3026 RMK A01 T00661004  RH  061%=      5-min Rain = 0
KTH1 130815Z 09002KT 07/M01 A3026 RMK A01 T00661007  RH  060%=      5-min Rain = 0
KTH1 130816Z 09002KT 07/M01 A3026 RMK A01 T00661008  RH  059%=      5-min Rain = 0
KTH1 130817Z 09002KT 07/M01 A3026 RMK A01 T00661007  RH  060%=      5-min Rain = 0
KTH1 130818Z 09003KT 07/M01 A3026 RMK A01 T00661005  RH  061%=      5-min Rain = 0
KTH1 130819Z 08003KT 07/M01 A3026 RMK A01 T00661006  RH  060%=      5-min Rain = 0
KTH1 130820Z 08003KT 07/M01 A3026 RMK A01 T00661008  RH  059%=      5-min Rain = 0
KTH1 130821Z 07003KT 07/M01 A3026 RMK A01 T00671011  RH  058%=      5-min Rain = 0
KTH1 130822Z 07003KT 07/M01 A3026 RMK A01 T00671010  RH  058%=      5-min Rain = 0
KTH1 130823Z 07003KT 07/M01 A3026 RMK A01 T00671005  RH  060%=      5-min Rain = 0
KTH1 130824Z 07003KT 07/M01 A3026 RMK A01 T00671006  RH  060%=      5-min Rain = 0
KTH1 130825Z 07002KT 07/M01 A3026 RMK A01 T00661009  RH  059%=      5-min Rain = 0
KTH1 130826Z 07003KT 07/M01 A3026 RMK A01 T00661012  RH  057%=      5-min Rain = 0
KTH1 130827Z 07003KT 07/M01 A3026 RMK A01 T00661011  RH  058%=      5-min Rain = 0
KTH1 130828Z 07003KT 07/M01 A3026 RMK A01 T00661013  RH  057%=      5-min Rain = 0
KTH1 130829Z 07003KT 07/M01 A3026 RMK A01 T00651014  RH  057%=      5-min Rain = 0
KTH1 130830Z 07003KT 07/M02 A3026 RMK A01 T00661017  RH  056%=      5-min Rain = 0
KTH1 130831Z 07003KT 07/M02 A3026 RMK A01 T00661016  RH  056%=      5-min Rain = 0
KTH1 130832Z 07004KT 07/M02 A3026 RMK A01 T00661017  RH  056%=      5-min Rain = 0
KTH1 130833Z 07003KT 07/M02 A3026 RMK A01 T00671021  RH  054%=      5-min Rain = 0
KTH1 130834Z 08004KT 07/M02 A3026 RMK A01 T00671022  RH  053%=      5-min Rain = 0
KTH1 130835Z 08003KT 07/M02 A3026 RMK A01 T00681023  RH  052%=      5-min Rain = 0
KTH1 130836Z 08003KT 07/M02 A3026 RMK A01 T00691022  RH  052%=      5-min Rain = 0
KTH1 130837Z 09003KT 07/M02 A3026 RMK A01 T00691022  RH  052%=      5-min Rain = 0
KTH1 130838Z 09003KT 07/M02 A3026 RMK A01 T00691023  RH  052%=      5-min Rain = 0
KTH1 130839Z 08003KT 07/M02 A3026 RMK A01 T00691023  RH  052%=      5-min Rain = 0
KTH1 130840Z 09003KT 07/M02 A3026 RMK A01 T00691023  RH  052%=      5-min Rain = 0
KTH1 130841Z 09003KT 07/M02 A3026 RMK A01 T00691022  RH  052%=      5-min Rain = 0
KTH1 130842Z 08004KT 07/M02 A3026 RMK A01 T00691020  RH  053%=      5-min Rain = 0
KTH1 130843Z 08004KT 07/M02 A3026 RMK A01 T00691019  RH  053%=      5-min Rain = 0
KTH1 130844Z 08003KT 07/M02 A3026 RMK A01 T00691019  RH  054%=      5-min Rain = 0
KTH1 130845Z 08003KT 07/M02 A3026 RMK A01 T00691019  RH  054%=      5-min Rain = 0
KTH1 130846Z 08003KT 07/M02 A3026 RMK A01 T00691018  RH  054%=      5-min Rain = 0
KTH1 130847Z 08004KT 07/M02 A3026 RMK A01 T00691018  RH  054%=      5-min Rain = 0
KTH1 130848Z 08004KT 07/M02 A3026 RMK A01 T00691017  RH  054%=      5-min Rain = 0
KTH1 130849Z 08003KT 07/M02 A3026 RMK A01 T00681017  RH  055%=      5-min Rain = 0
KTH1 130850Z 08004KT 07/M02 A3026 RMK A01 T00681017  RH  055%=      5-min Rain = 0
KTH1 130851Z 09004KT 07/M02 A3026 RMK A01 T00681018  RH  054%=      5-min Rain = 0
KTH1 130852Z 09004KT 07/M02 A3026 RMK A01 T00681019  RH  054%=      5-min Rain = 0
KTH1 130853Z 08004KT 07/M02 A3026 RMK A01 T00681020  RH  053%=      5-min Rain = 0
KTH1 130854Z 09004KT 07/M02 A3026 RMK A01 T00681020  RH  053%=      5-min Rain = 0
KTH1 130855Z 08004KT 07/M02 A3026 RMK A01 T00681020  RH  053%=      5-min Rain = 0
KTH1 130856Z 09004KT 07/M02 A3026 RMK A01 T00681020  RH  053%=      5-min Rain = 0
KTH1 130857Z 08004KT 07/M02 A3026 RMK A01 T00681020  RH  054%=      5-min Rain = 0
KTH1 130858Z 08004KT 07/M02 A3026 RMK A01 T00681021  RH  053%=      5-min Rain = 0
KTH1 130859Z 09004KT 07/M02 A3026 RMK A01 T00681021  RH  053%=      5-min Rain = 0
KTH1 130900Z 08004KT 07/M02 A3025 RMK A01 T00681021  RH  053%=      5-min Rain = 0
KTH1 130901Z 08003KT 07/M02 A3025 RMK A01 T00681020  RH  054%=      5-min Rain = 0
KTH1 130902Z 09005KT 07/M02 A3025 RMK A01 T00681020  RH  054%=      5-min Rain = 0
KTH1 130903Z 09004KT 07/M02 A3025 RMK A01 T00671020  RH  054%=      5-min Rain = 0
KTH1 130904Z 09003KT 07/M02 A3025 RMK A01 T00681020  RH  053%=      5-min Rain = 0
KTH1 130905Z 08003KT 07/M02 A3025 RMK A01 T00671019  RH  054%=      5-min Rain = 0
KTH1 130906Z 08004KT 07/M02 A3025 RMK A01 T00671019  RH  054%=      5-min Rain = 0
KTH1 130907Z 09004KT 07/M02 A3025 RMK A01 T00671019  RH  054%=      5-min Rain = 0
KTH1 130908Z 08004KT 07/M02 A3025 RMK A01 T00681019  RH  054%=      5-min Rain = 0
KTH1 130909Z 08003KT 07/M02 A3025 RMK A01 T00671020  RH  054%=      5-min Rain = 0
KTH1 130910Z 08003KT 07/M02 A3025 RMK A01 T00671020  RH  054%=      5-min Rain = 0
KTH1 130911Z 08003KT 07/M02 A3025 RMK A01 T00671018  RH  054%=      5-min Rain = 0
KTH1 130912Z 08004KT 07/M02 A3025 RMK A01 T00671018  RH  054%=      5-min Rain = 0
KTH1 130913Z 08003KT 07/M02 A3025 RMK A01 T00671019  RH  054%=      5-min Rain = 0
KTH1 130914Z 08003KT 07/M02 A3025 RMK A01 T00661018  RH  055%=      5-min Rain = 0
KTH1 130915Z 08004KT 07/M02 A3025 RMK A01 T00661019  RH  055%=      5-min Rain = 0
KTH1 130916Z 09004KT 07/M02 A3025 RMK A01 T00661020  RH  054%=      5-min Rain = 0
KTH1 130917Z 08003KT 07/M02 A3025 RMK A01 T00661020  RH  054%=      5-min Rain = 0
KTH1 130918Z 08004KT 07/M02 A3025 RMK A01 T00661018  RH  055%=      5-min Rain = 0
KTH1 130919Z 08004KT 07/M02 A3025 RMK A01 T00661020  RH  054%=      5-min Rain = 0
KTH1 130920Z 08003KT 07/M02 A3025 RMK A01 T00661019  RH  054%=      5-min Rain = 0
KTH1 130921Z 07003KT 07/M02 A3025 RMK A01 T00661017  RH  055%=      5-min Rain = 0
KTH1 130922Z 08003KT 07/M02 A3025 RMK A01 T00661018  RH  055%=      5-min Rain = 0
KTH1 130923Z 08003KT 07/M02 A3025 RMK A01 T00651017  RH  056%=      5-min Rain = 0
KTH1 130924Z 08003KT 07/M02 A3025 RMK A01 T00651017  RH  056%=      5-min Rain = 0
KTH1 130925Z 09003KT 07/M02 A3025 RMK A01 T00651017  RH  056%=      5-min Rain = 0
KTH1 130926Z 09003KT 07/M02 A3025 RMK A01 T00651018  RH  055%=      5-min Rain = 0
KTH1 130927Z 10003KT 07/M02 A3025 RMK A01 T00651018  RH  055%=      5-min Rain = 0
KTH1 130928Z 09004KT 07/M02 A3025 RMK A01 T00651019  RH  055%=      5-min Rain = 0
KTH1 130929Z 10003KT 07/M02 A3025 RMK A01 T00651019  RH  055%=      5-min Rain = 0
KTH1 130930Z 09004KT 07/M02 A3025 RMK A01 T00651019  RH  055%=      5-min Rain = 0
KTH1 130931Z 09003KT 07/M02 A3025 RMK A01 T00661019  RH  055%=      5-min Rain = 0
KTH1 130932Z 09004KT 07/M02 A3025 RMK A01 T00651019  RH  055%=      5-min Rain = 0
KTH1 130933Z 09004KT 07/M02 A3025 RMK A01 T00651018  RH  055%=      5-min Rain = 0
KTH1 130934Z 08003KT 07/M02 A3025 RMK A01 T00651018  RH  055%=      5-min Rain = 0
KTH1 130935Z 08003KT 07/M02 A3025 RMK A01 T00651017  RH  056%=      5-min Rain = 0
KTH1 130936Z 08004KT 07/M02 A3025 RMK A01 T00651017  RH  056%=      5-min Rain = 0
KTH1 130937Z 08004KT 07/M02 A3025 RMK A01 T00651019  RH  055%=      5-min Rain = 0
KTH1 130938Z 09003KT 07/M02 A3025 RMK A01 T00651019  RH  055%=      5-min Rain = 0
KTH1 130939Z 09004KT 07/M02 A3026 RMK A01 T00651018  RH  055%=      5-min Rain = 0
KTH1 130940Z 08004KT 07/M02 A3026 RMK A01 T00651019  RH  055%=      5-min Rain = 0
KTH1 130941Z 09004KT 07/M02 A3026 RMK A01 T00651020  RH  054%=      5-min Rain = 0
KTH1 130942Z 09004KT 07/M02 A3026 RMK A01 T00651019  RH  055%=      5-min Rain = 0
KTH1 130943Z 08004KT 07/M02 A3026 RMK A01 T00651019  RH  055%=      5-min Rain = 0
KTH1 130944Z 08004KT 07/M02 A3026 RMK A01 T00651019  RH  055%=      5-min Rain = 0
KTH1 130945Z 08003KT 07/M02 A3026 RMK A01 T00651017  RH  056%=      5-min Rain = 0
KTH1 130946Z 08003KT 07/M02 A3026 RMK A01 T00651018  RH  055%=      5-min Rain = 0
KTH1 130947Z 07003KT 07/M02 A3026 RMK A01 T00651019  RH  055%=      5-min Rain = 0
KTH1 130948Z 08004KT 07/M02 A3026 RMK A01 T00651019  RH  055%=      5-min Rain = 0
KTH1 130949Z 09003KT 07/M02 A3026 RMK A01 T00651020  RH  055%=      5-min Rain = 0
KTH1 130950Z 09003KT 07/M02 A3026 RMK A01 T00651020  RH  055%=      5-min Rain = 0
KTH1 130951Z 09004KT 07/M02 A3026 RMK A01 T00651019  RH  055%=      5-min Rain = 0
KTH1 130952Z 08004KT 07/M02 A3026 RMK A01 T00651020  RH  055%=      5-min Rain = 0
KTH1 130953Z 09004KT 07/M02 A3026 RMK A01 T00651019  RH  055%=      5-min Rain = 0
KTH1 130954Z 09003KT 07/M02 A3026 RMK A01 T00651019  RH  055%=      5-min Rain = 0
KTH1 130955Z 08004KT 07/M02 A3026 RMK A01 T00651019  RH  055%=      5-min Rain = 0
KTH1 130956Z 09004KT 07/M02 A3026 RMK A01 T00651019  RH  055%=      5-min Rain = 0
KTH1 130957Z 08004KT 07/M02 A3026 RMK A01 T00651020  RH  055%=      5-min Rain = 0
KTH1 130958Z 09004KT 06/M02 A3026 RMK A01 T00641020  RH  055%=      5-min Rain = 0
KTH1 130959Z 09003KT 06/M02 A3026 RMK A01 T00641020  RH  055%=      5-min Rain = 0
KTH1 131000Z 08003KT 06/M02 A3026 RMK A01 T00641020  RH  055%=      5-min Rain = 0
KTH1 131001Z 08003KT 06/M02 A3026 RMK A01 T00641018  RH  055%=      5-min Rain = 0
KTH1 131002Z 09003KT 06/M02 A3025 RMK A01 T00641018  RH  056%=      5-min Rain = 0
KTH1 131003Z 09004KT 06/M02 A3025 RMK A01 T00641019  RH  055%=      5-min Rain = 0
KTH1 131004Z 09003KT 06/M02 A3025 RMK A01 T00641019  RH  055%=      5-min Rain = 0
KTH1 131005Z 08003KT 06/M02 A3025 RMK A01 T00641019  RH  055%=      5-min Rain = 0
KTH1 131006Z 09004KT 06/M02 A3026 RMK A01 T00641018  RH  056%=      5-min Rain = 0
KTH1 131007Z 08003KT 06/M02 A3026 RMK A01 T00641019  RH  056%=      5-min Rain = 0
KTH1 131008Z 08003KT 06/M02 A3026 RMK A01 T00641020  RH  055%=      5-min Rain = 0
KTH1 131009Z 08003KT 06/M02 A3026 RMK A01 T00641020  RH  055%=      5-min Rain = 0
KTH1 131010Z 08003KT 06/M02 A3026 RMK A01 T00641018  RH  056%=      5-min Rain = 0
KTH1 131011Z 08003KT 06/M02 A3026 RMK A01 T00641019  RH  055%=      5-min Rain = 0
KTH1 131012Z 08003KT 06/M02 A3026 RMK A01 T00641019  RH  055%=      5-min Rain = 0
KTH1 131013Z 07002KT 06/M02 A3026 RMK A01 T00641019  RH  055%=      5-min Rain = 0
KTH1 131014Z 08002KT 06/M02 A3026 RMK A01 T00631019  RH  056%=      5-min Rain = 0
KTH1 131015Z 08002KT 06/M02 A3026 RMK A01 T00631018  RH  056%=      5-min Rain = 0
KTH1 131016Z 07002KT 06/M02 A3026 RMK A01 T00631018  RH  056%=      5-min Rain = 0
KTH1 131017Z 08001KT 06/M02 A3026 RMK A01 T00631017  RH  056%=      5-min Rain = 0
KTH1 131018Z 08002KT 06/M02 A3026 RMK A01 T00631018  RH  056%=      5-min Rain = 0
KTH1 131019Z 07002KT 06/M02 A3027 RMK A01 T00631018  RH  056%=      5-min Rain = 0
KTH1 131020Z 07002KT 06/M02 A3027 RMK A01 T00631018  RH  056%=      5-min Rain = 0
KTH1 131021Z 07003KT 06/M02 A3027 RMK A01 T00631017  RH  057%=      5-min Rain = 0
KTH1 131022Z 07002KT 06/M02 A3027 RMK A01 T00631018  RH  056%=      5-min Rain = 0
KTH1 131023Z 07003KT 06/M02 A3027 RMK A01 T00631017  RH  057%=      5-min Rain = 0
KTH1 131024Z 07002KT 06/M02 A3027 RMK A01 T00631017  RH  057%=      5-min Rain = 0
KTH1 131025Z 07002KT 06/M02 A3027 RMK A01 T00631016  RH  057%=      5-min Rain = 0
KTH1 131026Z 07002KT 06/M02 A3027 RMK A01 T00631017  RH  057%=      5-min Rain = 0
KTH1 131027Z 07003KT 06/M02 A3027 RMK A01 T00621016  RH  057%=      5-min Rain = 0
KTH1 131028Z 07002KT 06/M02 A3027 RMK A01 T00621017  RH  057%=      5-min Rain = 0
KTH1 131029Z 07003KT 06/M02 A3027 RMK A01 T00621018  RH  056%=      5-min Rain = 0
KTH1 131030Z 07002KT 06/M02 A3027 RMK A01 T00621018  RH  056%=      5-min Rain = 0
KTH1 131031Z 07002KT 06/M02 A3027 RMK A01 T00621017  RH  057%=      5-min Rain = 0
KTH1 131032Z 07002KT 06/M02 A3027 RMK A01 T00621019  RH  056%=      5-min Rain = 0
KTH1 131033Z 07002KT 06/M02 A3027 RMK A01 T00621019  RH  056%=      5-min Rain = 0
KTH1 131034Z 07002KT 06/M02 A3027 RMK A01 T00631018  RH  056%=      5-min Rain = 0
KTH1 131035Z 07002KT 06/M02 A3027 RMK A01 T00621020  RH  056%=      5-min Rain = 0
KTH1 131036Z 06002KT 06/M02 A3027 RMK A01 T00621020  RH  056%=      5-min Rain = 0
KTH1 131037Z 06002KT 06/M02 A3028 RMK A01 T00631019  RH  056%=      5-min Rain = 0
KTH1 131038Z 06002KT 06/M02 A3028 RMK A01 T00621018  RH  056%=      5-min Rain = 0
KTH1 131039Z 07002KT 06/M02 A3028 RMK A01 T00631018  RH  056%=      5-min Rain = 0
KTH1 131040Z 06002KT 06/M02 A3028 RMK A01 T00631018  RH  056%=      5-min Rain = 0
KTH1 131041Z 06002KT 06/M02 A3028 RMK A01 T00631019  RH  056%=      5-min Rain = 0
KTH1 131042Z 06002KT 06/M02 A3028 RMK A01 T00631019  RH  056%=      5-min Rain = 0
KTH1 131043Z 07002KT 06/M02 A3028 RMK A01 T00631018  RH  056%=      5-min Rain = 0
KTH1 131044Z 07001KT 06/M02 A3028 RMK A01 T00631017  RH  057%=      5-min Rain = 0
KTH1 131045Z 07001KT 06/M02 A3028 RMK A01 T00631019  RH  056%=      5-min Rain = 0
KTH1 131046Z 06001KT 06/M02 A3028 RMK A01 T00631021  RH  055%=      5-min Rain = 0
KTH1 131047Z 06002KT 06/M02 A3028 RMK A01 T00631021  RH  055%=      5-min Rain = 0
KTH1 131048Z 06002KT 06/M02 A3028 RMK A01 T00631021  RH  055%=      5-min Rain = 0
KTH1 131049Z 05002KT 06/M02 A3028 RMK A01 T00631021  RH  055%=      5-min Rain = 0
KTH1 131050Z 05002KT 06/M02 A3028 RMK A01 T00631021  RH  055%=      5-min Rain = 0
KTH1 131051Z 06002KT 06/M02 A3028 RMK A01 T00631021  RH  055%=      5-min Rain = 0
KTH1 131052Z 06002KT 06/M02 A3028 RMK A01 T00631020  RH  055%=      5-min Rain = 0
KTH1 131053Z 05002KT 06/M02 A3028 RMK A01 T00621021  RH  055%=      5-min Rain = 0
KTH1 131054Z 05002KT 06/M02 A3028 RMK A01 T00621021  RH  055%=      5-min Rain = 0
KTH1 131055Z 04002KT 06/M02 A3028 RMK A01 T00621021  RH  055%=      5-min Rain = 0
KTH1 131056Z 04002KT 06/M02 A3028 RMK A01 T00621021  RH  055%=      5-min Rain = 0
KTH1 131057Z 03002KT 06/M02 A3028 RMK A01 T00621021  RH  055%=      5-min Rain = 0
KTH1 131058Z 03001KT 06/M02 A3028 RMK A01 T00621021  RH  055%=      5-min Rain = 0
KTH1 131059Z 03001KT 06/M02 A3028 RMK A01 T00621022  RH  055%=      5-min Rain = 0
KTH1 131100Z 02001KT 06/M02 A3028 RMK A01 T00621022  RH  055%=      5-min Rain = 0
KTH1 131101Z 03001KT 06/M02 A3028 RMK A01 T00621022  RH  055%=      5-min Rain = 0
KTH1 131102Z 04001KT 06/M02 A3028 RMK A01 T00621021  RH  055%=      5-min Rain = 0
KTH1 131103Z 04002KT 06/M02 A3028 RMK A01 T00621020  RH  056%=      5-min Rain = 0
KTH1 131104Z 03002KT 06/M02 A3028 RMK A01 T00621020  RH  056%=      5-min Rain = 0
KTH1 131105Z 03002KT 06/M02 A3028 RMK A01 T00611021  RH  056%=      5-min Rain = 0
KTH1 131106Z 03002KT 06/M02 A3028 RMK A01 T00621020  RH  056%=      5-min Rain = 0
KTH1 131107Z 03002KT 06/M02 A3028 RMK A01 T00611020  RH  056%=      5-min Rain = 0
KTH1 131108Z 04002KT 06/M02 A3028 RMK A01 T00621019  RH  056%=      5-min Rain = 0
KTH1 131109Z 04003KT 06/M02 A3028 RMK A01 T00621017  RH  057%=      5-min Rain = 0
KTH1 131110Z 04003KT 06/M02 A3028 RMK A01 T00621016  RH  057%=      5-min Rain = 0
KTH1 131111Z 05003KT 06/M02 A3028 RMK A01 T00621017  RH  057%=      5-min Rain = 0
KTH1 131112Z 05002KT 06/M02 A3028 RMK A01 T00621018  RH  057%=      5-min Rain = 0
KTH1 131113Z 05002KT 06/M02 A3028 RMK A01 T00611015  RH  058%=      5-min Rain = 0
KTH1 131114Z 05002KT 06/M02 A3028 RMK A01 T00611020  RH  056%=      5-min Rain = 0
KTH1 131115Z 05003KT 06/M02 A3028 RMK A01 T00621021  RH  056%=      5-min Rain = 0
KTH1 131116Z 05003KT 06/M02 A3028 RMK A01 T00621022  RH  055%=      5-min Rain = 0
KTH1 131117Z 04003KT 06/M02 A3029 RMK A01 T00611022  RH  055%=      5-min Rain = 0
KTH1 131118Z 04003KT 06/M02 A3029 RMK A01 T00621022  RH  055%=      5-min Rain = 0
KTH1 131119Z 03003KT 06/M02 A3029 RMK A01 T00621023  RH  054%=      5-min Rain = 0
KTH1 131120Z 03003KT 06/M02 A3029 RMK A01 T00621024  RH  054%=      5-min Rain = 0
KTH1 131121Z 03002KT 06/M02 A3029 RMK A01 T00621023  RH  055%=      5-min Rain = 0
KTH1 131122Z 02002KT 06/M02 A3029 RMK A01 T00621020  RH  056%=      5-min Rain = 0
KTH1 131123Z 03002KT 06/M02 A3029 RMK A01 T00611018  RH  057%=      5-min Rain = 0
KTH1 131124Z 03002KT 06/M02 A3029 RMK A01 T00611015  RH  058%=      5-min Rain = 0
KTH1 131125Z 03003KT 06/M01 A3029 RMK A01 T00611013  RH  059%=      5-min Rain = 0
KTH1 131126Z 03003KT 06/M01 A3029 RMK A01 T00601014  RH  059%=      5-min Rain = 0
KTH1 131127Z 03003KT 06/M02 A3029 RMK A01 T00601015  RH  058%=      5-min Rain = 0
KTH1 131128Z 03002KT 06/M02 A3029 RMK A01 T00601016  RH  058%=      5-min Rain = 0
KTH1 131129Z 03002KT 06/M02 A3029 RMK A01 T00601015  RH  059%=      5-min Rain = 0
KTH1 131130Z 03002KT 06/M01 A3029 RMK A01 T00591014  RH  059%=      5-min Rain = 0
KTH1 131131Z 03002KT 06/M01 A3029 RMK A01 T00591012  RH  060%=      5-min Rain = 0
KTH1 131132Z 03002KT 06/M01 A3029 RMK A01 T00591011  RH  061%=      5-min Rain = 0
KTH1 131133Z 03002KT 06/M01 A3029 RMK A01 T00591009  RH  062%=      5-min Rain = 0
KTH1 131134Z 03002KT 06/M01 A3029 RMK A01 T00581009  RH  062%=      5-min Rain = 0
KTH1 131135Z 03002KT 06/M01 A3029 RMK A01 T00571009  RH  062%=      5-min Rain = 0
KTH1 131136Z 03002KT 06/M01 A3029 RMK A01 T00571009  RH  063%=      5-min Rain = 0
KTH1 131137Z 03002KT 06/M01 A3029 RMK A01 T00571012  RH  061%=      5-min Rain = 0
KTH1 131138Z 02003KT 06/M02 A3029 RMK A01 T00561018  RH  059%=      5-min Rain = 0
KTH1 131139Z 02002KT 06/M02 A3029 RMK A01 T00571020  RH  058%=      5-min Rain = 0
KTH1 131140Z 02002KT 06/M02 A3029 RMK A01 T00581020  RH  057%=      5-min Rain = 0
KTH1 131141Z 01002KT 06/M02 A3029 RMK A01 T00581020  RH  057%=      5-min Rain = 0
KTH1 131142Z 01001KT 06/M02 A3029 RMK A01 T00581016  RH  059%=      5-min Rain = 0
KTH1 131143Z 01002KT 06/M01 A3029 RMK A01 T00571013  RH  061%=      5-min Rain = 0
KTH1 131144Z 00002KT 06/M01 A3029 RMK A01 T00571012  RH  061%=      5-min Rain = 0
KTH1 131145Z 00002KT 06/M01 A3029 RMK A01 T00571012  RH  061%=      5-min Rain = 0
KTH1 131146Z 01002KT 06/M01 A3029 RMK A01 T00561012  RH  062%=      5-min Rain = 0
KTH1 131147Z 01002KT 06/M01 A3029 RMK A01 T00551013  RH  061%=      5-min Rain = 0
KTH1 131148Z 01002KT 06/M01 A3029 RMK A01 T00551014  RH  061%=      5-min Rain = 0
KTH1 131149Z 01002KT 06/M01 A3029 RMK A01 T00551014  RH  061%=      5-min Rain = 0
KTH1 131150Z 01002KT 06/M02 A3029 RMK A01 T00551015  RH  061%=      5-min Rain = 0
KTH1 131151Z 01002KT 06/M02 A303 RMK A01 T00551015  RH  061%=      5-min Rain = 0
KTH1 131152Z 02002KT 05/M02 A303 RMK A01 T00541015  RH  061%=      5-min Rain = 0
KTH1 131153Z 01002KT 05/M01 A303 RMK A01 T00541014  RH  061%=      5-min Rain = 0
KTH1 131154Z 01002KT 05/M02 A303 RMK A01 T00541015  RH  061%=      5-min Rain = 0
KTH1 131155Z 01002KT 05/M01 A303 RMK A01 T00541014  RH  062%=      5-min Rain = 0
KTH1 131156Z 01002KT 05/M01 A303 RMK A01 T00531014  RH  062%=      5-min Rain = 0
KTH1 131157Z 01002KT 05/M01 A303 RMK A01 T00531013  RH  062%=      5-min Rain = 0
KTH1 131158Z 00001KT 05/M01 A303 RMK A01 T00531013  RH  063%=      5-min Rain = 0
KTH1 131159Z 01001KT 05/M01 A303 RMK A01 T00521013  RH  063%=      5-min Rain = 0
KTH1 131200Z 00001KT 05/M01 A303 RMK A01 T00521014  RH  063%=      5-min Rain = 0
KTH1 131201Z 00002KT 05/M01 A303 RMK A01 T00511014  RH  063%=      5-min Rain = 0
KTH1 131202Z 01002KT 05/M02 A303 RMK A01 T00511015  RH  062%=      5-min Rain = 0
KTH1 131203Z 01002KT 05/M01 A303 RMK A01 T00511014  RH  063%=      5-min Rain = 0
KTH1 131204Z 01002KT 05/M02 A303 RMK A01 T00511015  RH  062%=      5-min Rain = 0
KTH1 131205Z 01002KT 05/M02 A303 RMK A01 T00501016  RH  062%=      5-min Rain = 0
KTH1 131206Z 01002KT 05/M02 A303 RMK A01 T00501016  RH  062%=      5-min Rain = 0
KTH1 131207Z 00002KT 05/M02 A303 RMK A01 T00501016  RH  062%=      5-min Rain = 0
KTH1 131208Z 01002KT 05/M02 A303 RMK A01 T00491016  RH  063%=      5-min Rain = 0
KTH1 131209Z 01002KT 05/M02 A303 RMK A01 T00491015  RH  063%=      5-min Rain = 0
KTH1 131210Z 00002KT 05/M02 A303 RMK A01 T00481015  RH  064%=      5-min Rain = 0
KTH1 131211Z 00002KT 05/M01 A303 RMK A01 T00491014  RH  064%=      5-min Rain = 0
KTH1 131212Z 00002KT 05/M02 A303 RMK A01 T00481015  RH  064%=      5-min Rain = 0
KTH1 131213Z 00002KT 05/M01 A303 RMK A01 T00481014  RH  064%=      5-min Rain = 0
KTH1 131214Z 35002KT 05/M01 A303 RMK A01 T00481014  RH  064%=      5-min Rain = 0
KTH1 131215Z 35002KT 05/M02 A303 RMK A01 T00471015  RH  064%=      5-min Rain = 0
KTH1 131216Z 35002KT 05/M02 A303 RMK A01 T00471016  RH  064%=      5-min Rain = 0
KTH1 131217Z 35002KT 05/M02 A303 RMK A01 T00471017  RH  063%=      5-min Rain = 0
KTH1 131218Z 35002KT 05/M02 A303 RMK A01 T00471017  RH  063%=      5-min Rain = 0
KTH1 131219Z 35002KT 05/M02 A303 RMK A01 T00461018  RH  063%=      5-min Rain = 0
KTH1 131220Z 35001KT 05/M02 A303 RMK A01 T00461018  RH  063%=      5-min Rain = 0
KTH1 131221Z 34001KT 05/M02 A303 RMK A01 T00461017  RH  064%=      5-min Rain = 0
KTH1 131222Z 34001KT 05/M02 A303 RMK A01 T00461017  RH  064%=      5-min Rain = 0
KTH1 131223Z 34001KT 05/M02 A303 RMK A01 T00461017  RH  064%=      5-min Rain = 0
KTH1 131224Z 34001KT 05/M02 A3031 RMK A01 T00451018  RH  063%=      5-min Rain = 0
KTH1 131225Z 35001KT 05/M02 A3031 RMK A01 T00451020  RH  063%=      5-min Rain = 0
KTH1 131226Z 34001KT 05/M02 A3031 RMK A01 T00451021  RH  062%=      5-min Rain = 0
KTH1 131227Z 34001KT 05/M02 A3031 RMK A01 T00451021  RH  062%=      5-min Rain = 0
KTH1 131228Z 00001KT 05/M02 A3031 RMK A01 T00451021  RH  062%=      5-min Rain = 0
KTH1 131229Z 01001KT 04/M02 A3031 RMK A01 T00441021  RH  062%=      5-min Rain = 0
KTH1 131230Z 04001KT 04/M02 A3031 RMK A01 T00441022  RH  062%=      5-min Rain = 0
KTH1 131231Z 04001KT 04/M02 A3031 RMK A01 T00431022  RH  062%=      5-min Rain = 0
KTH1 131232Z 04001KT 04/M02 A3031 RMK A01 T00431022  RH  063%=      5-min Rain = 0
KTH1 131233Z 05001KT 04/M02 A3031 RMK A01 T00421023  RH  063%=      5-min Rain = 0
KTH1 131234Z 05002KT 04/M02 A3031 RMK A01 T00421023  RH  063%=      5-min Rain = 0
KTH1 131235Z 05002KT 04/M02 A3031 RMK A01 T00421024  RH  062%=      5-min Rain = 0
KTH1 131236Z 06002KT 04/M03 A3031 RMK A01 T00421025  RH  061%=      5-min Rain = 0
KTH1 131237Z 07002KT 04/M03 A3031 RMK A01 T00431027  RH  060%=      5-min Rain = 0
KTH1 131238Z 06002KT 04/M03 A3031 RMK A01 T00441027  RH  060%=      5-min Rain = 0
KTH1 131239Z 07002KT 04/M03 A3031 RMK A01 T00441028  RH  059%=      5-min Rain = 0
KTH1 131240Z 07002KT 05/M03 A3031 RMK A01 T00451027  RH  060%=      5-min Rain = 0
KTH1 131241Z 07002KT 05/M03 A3031 RMK A01 T00451027  RH  060%=      5-min Rain = 0
KTH1 131242Z 08002KT 05/M03 A3031 RMK A01 T00451026  RH  060%=      5-min Rain = 0
KTH1 131243Z 07002KT 04/M03 A3031 RMK A01 T00441026  RH  060%=      5-min Rain = 0
KTH1 131244Z 07002KT 04/M03 A3031 RMK A01 T00441026  RH  060%=      5-min Rain = 0
KTH1 131245Z 06002KT 04/M03 A3031 RMK A01 T00441027  RH  060%=      5-min Rain = 0
KTH1 131246Z 06003KT 04/M03 A3031 RMK A01 T00441027  RH  060%=      5-min Rain = 0
KTH1 131247Z 06003KT 04/M03 A3031 RMK A01 T00441027  RH  060%=      5-min Rain = 0
KTH1 131248Z 05003KT 04/M03 A3031 RMK A01 T00441028  RH  060%=      5-min Rain = 0
KTH1 131249Z 06003KT 04/M03 A3031 RMK A01 T00441028  RH  060%=      5-min Rain = 0
KTH1 131250Z 05003KT 04/M03 A3031 RMK A01 T00441028  RH  060%=      5-min Rain = 0
KTH1 131251Z 05003KT 04/M03 A3031 RMK A01 T00441028  RH  059%=      5-min Rain = 0
KTH1 131252Z 05003KT 05/M03 A3032 RMK A01 T00451028  RH  059%=      5-min Rain = 0
KTH1 131253Z 04003KT 05/M03 A3032 RMK A01 T00451028  RH  059%=      5-min Rain = 0
KTH1 131254Z 04003KT 05/M03 A3032 RMK A01 T00451028  RH  059%=      5-min Rain = 0
KTH1 131255Z 04003KT 05/M03 A3032 RMK A01 T00451028  RH  059%=      5-min Rain = 0
KTH1 131256Z 05002KT 05/M03 A3032 RMK A01 T00451028  RH  059%=      5-min Rain = 0
KTH1 131257Z 05003KT 04/M03 A3032 RMK A01 T00441028  RH  059%=      5-min Rain = 0
KTH1 131258Z 05004KT 04/M03 A3032 RMK A01 T00441030  RH  059%=      5-min Rain = 0
KTH1 131259Z 06004KT 04/M03 A3032 RMK A01 T00441031  RH  058%=      5-min Rain = 0
KTH1 131300Z 06003KT 04/M03 A3032 RMK A01 T00441032  RH  058%=      5-min Rain = 0
KTH1 131301Z 05003KT 04/M03 A3032 RMK A01 T00441032  RH  058%=      5-min Rain = 0
KTH1 131302Z 05003KT 04/M03 A3032 RMK A01 T00441033  RH  057%=      5-min Rain = 0
KTH1 131303Z 05003KT 04/M03 A3032 RMK A01 T00441033  RH  057%=      5-min Rain = 0
KTH1 131304Z 05003KT 04/M03 A3032 RMK A01 T00441033  RH  057%=      5-min Rain = 0
KTH1 131305Z 05003KT 04/M03 A3032 RMK A01 T00441033  RH  057%=      5-min Rain = 0
KTH1 131306Z 05003KT 04/M03 A3032 RMK A01 T00441034  RH  057%=      5-min Rain = 0
KTH1 131307Z 05002KT 04/M03 A3032 RMK A01 T00441033  RH  057%=      5-min Rain = 0
KTH1 131308Z 05002KT 04/M03 A3032 RMK A01 T00441032  RH  058%=      5-min Rain = 0
KTH1 131309Z 05002KT 04/M03 A3032 RMK A01 T00441031  RH  058%=      5-min Rain = 0
KTH1 131310Z 04002KT 04/M03 A3032 RMK A01 T00441031  RH  058%=      5-min Rain = 0
KTH1 131311Z 05002KT 04/M03 A3032 RMK A01 T00441031  RH  058%=      5-min Rain = 0
KTH1 131312Z 05002KT 05/M03 A3032 RMK A01 T00451031  RH  058%=      5-min Rain = 0
KTH1 131313Z 04002KT 05/M03 A3032 RMK A01 T00451031  RH  058%=      5-min Rain = 0
KTH1 131314Z 04002KT 05/M03 A3032 RMK A01 T00461032  RH  057%=      5-min Rain = 0
KTH1 131315Z 04002KT 05/M03 A3032 RMK A01 T00471032  RH  056%=      5-min Rain = 0
KTH1 131316Z 04002KT 05/M03 A3032 RMK A01 T00481032  RH  056%=      5-min Rain = 0
KTH1 131317Z 04002KT 05/M03 A3032 RMK A01 T00491031  RH  056%=      5-min Rain = 0
KTH1 131318Z 04002KT 05/M03 A3032 RMK A01 T00491031  RH  056%=      5-min Rain = 0
KTH1 131319Z 03002KT 05/M03 A3032 RMK A01 T00491032  RH  056%=      5-min Rain = 0
KTH1 131320Z 03002KT 05/M03 A3032 RMK A01 T00501032  RH  056%=      5-min Rain = 0
KTH1 131321Z 03002KT 05/M03 A3032 RMK A01 T00501031  RH  056%=      5-min Rain = 0
KTH1 131322Z 02002KT 05/M03 A3032 RMK A01 T00491027  RH  058%=      5-min Rain = 0
KTH1 131323Z 02002KT 05/M03 A3032 RMK A01 T00491025  RH  059%=      5-min Rain = 0
KTH1 131324Z 02002KT 05/M03 A3032 RMK A01 T00491025  RH  059%=      5-min Rain = 0
KTH1 131325Z 02002KT 05/M03 A3033 RMK A01 T00481026  RH  058%=      5-min Rain = 0
KTH1 131326Z 01002KT 05/M03 A3033 RMK A01 T00481026  RH  059%=      5-min Rain = 0
KTH1 131327Z 01002KT 05/M03 A3033 RMK A01 T00481026  RH  059%=      5-min Rain = 0
KTH1 131328Z 01002KT 05/M03 A3033 RMK A01 T00481025  RH  059%=      5-min Rain = 0
KTH1 131329Z 00002KT 05/M02 A3033 RMK A01 T00481024  RH  060%=      5-min Rain = 0
KTH1 131330Z 36002KT 05/M03 A3033 RMK A01 T00471025  RH  060%=      5-min Rain = 0
KTH1 131331Z 35002KT 05/M03 A3033 RMK A01 T00471025  RH  060%=      5-min Rain = 0
KTH1 131332Z 35002KT 05/M03 A3033 RMK A01 T00471025  RH  060%=      5-min Rain = 0
KTH1 131333Z 35003KT 05/M03 A3033 RMK A01 T00451025  RH  060%=      5-min Rain = 0
KTH1 131334Z 00003KT 04/M03 A3033 RMK A01 T00441026  RH  060%=      5-min Rain = 0
KTH1 131335Z 36003KT 04/M03 A3034 RMK A01 T00441025  RH  061%=      5-min Rain = 0
KTH1 131336Z 36003KT 04/M02 A3034 RMK A01 T00431023  RH  062%=      5-min Rain = 0
KTH1 131337Z 00003KT 04/M02 A3034 RMK A01 T00421023  RH  063%=      5-min Rain = 0
KTH1 131338Z 36004KT 04/M02 A3034 RMK A01 T00411021  RH  064%=      5-min Rain = 0
KTH1 131339Z 36003KT 04/M02 A3034 RMK A01 T00411021  RH  064%=      5-min Rain = 0
KTH1 131340Z 00003KT 04/M02 A3034 RMK A01 T00411021  RH  064%=      5-min Rain = 0
KTH1 131341Z 00003KT 04/M02 A3034 RMK A01 T00411022  RH  064%=      5-min Rain = 0
KTH1 131342Z 01003KT 04/M02 A3034 RMK A01 T00411022  RH  064%=      5-min Rain = 0
KTH1 131343Z 01003KT 04/M02 A3034 RMK A01 T00411022  RH  064%=      5-min Rain = 0
KTH1 131344Z 01003KT 04/M02 A3034 RMK A01 T00411022  RH  064%=      5-min Rain = 0
KTH1 131345Z 02003KT 04/M02 A3034 RMK A01 T00411021  RH  064%=      5-min Rain = 0
KTH1 131346Z 02004KT 04/M02 A3034 RMK A01 T00411022  RH  064%=      5-min Rain = 0
KTH1 131347Z 02003KT 04/M02 A3035 RMK A01 T00421021  RH  063%=      5-min Rain = 0
KTH1 131348Z 02003KT 04/M02 A3035 RMK A01 T00441021  RH  063%=      5-min Rain = 0
KTH1 131349Z 02002KT 05/M02 A3035 RMK A01 T00451020  RH  063%=      5-min Rain = 0
KTH1 131350Z 02003KT 05/M02 A3035 RMK A01 T00461020  RH  062%=      5-min Rain = 0
KTH1 131351Z 03003KT 05/M02 A3035 RMK A01 T00481017  RH  063%=      5-min Rain = 0
KTH1 131352Z 03004KT 05/M02 A3035 RMK A01 T00501019  RH  061%=      5-min Rain = 0
KTH1 131353Z 03004KT 05/M02 A3035 RMK A01 T00521021  RH  059%=      5-min Rain = 0
KTH1 131354Z 04004KT 05/M02 A3035 RMK A01 T00541021  RH  059%=      5-min Rain = 0
KTH1 131355Z 03004KT 06/M02 A3035 RMK A01 T00551021  RH  058%=      5-min Rain = 0
KTH1 131356Z 03004KT 06/M02 A3035 RMK A01 T00571020  RH  058%=      5-min Rain = 0
KTH1 131357Z 02004KT 06/M02 A3035 RMK A01 T00581020  RH  058%=      5-min Rain = 0
KTH1 131358Z 03004KT 06/M02 A3035 RMK A01 T00581019  RH  058%=      5-min Rain = 0
KTH1 131359Z 03005KT 06/M02 A3035 RMK A01 T00591019  RH  057%=      5-min Rain = 0
KTH1 131400Z 03004KT 06/M02 A3035 RMK A01 T00591019  RH  057%=      5-min Rain = 0
KTH1 131401Z 02004KT 06/M02 A3035 RMK A01 T00601018  RH  057%=      5-min Rain = 0
KTH1 131402Z 04004KT 06/M02 A3035 RMK A01 T00621017  RH  057%=      5-min Rain = 0
KTH1 131403Z 04003KT 06/M02 A3035 RMK A01 T00621016  RH  057%=      5-min Rain = 0
KTH1 131404Z 03004KT 06/M02 A3035 RMK A01 T00631016  RH  057%=      5-min Rain = 0
KTH1 131405Z 03005KT 07/M02 A3035 RMK A01 T00651019  RH  055%=      5-min Rain = 0
KTH1 131406Z 03005KT 07/M02 A3035 RMK A01 T00651024  RH  053%=      5-min Rain = 0
KTH1 131407Z 03005KT 07/M02 A3035 RMK A01 T00661023  RH  053%=      5-min Rain = 0
KTH1 131408Z 03005KT 07/M02 A3035 RMK A01 T00671022  RH  053%=      5-min Rain = 0
KTH1 131409Z 02006KT 07/M02 A3035 RMK A01 T00671023  RH  052%=      5-min Rain = 0
KTH1 131410Z 03004KT 07/M02 A3036 RMK A01 T00681023  RH  052%=      5-min Rain = 0
KTH1 131411Z 03004KT 07/M02 A3036 RMK A01 T00691022  RH  053%=      5-min Rain = 0
KTH1 131412Z 02005KT 07/M02 A3036 RMK A01 T00691022  RH  052%=      5-min Rain = 0
KTH1 131413Z 03005KT 07/M02 A3036 RMK A01 T00701023  RH  051%=      5-min Rain = 0
KTH1 131414Z 03005KT 07/M03 A3036 RMK A01 T00711025  RH  051%=      5-min Rain = 0
KTH1 131415Z 03005KT 07/M03 A3036 RMK A01 T00721025  RH  050%=      5-min Rain = 0
KTH1 131416Z 04005KT 07/M03 A3036 RMK A01 T00721025  RH  050%=      5-min Rain = 0
KTH1 131417Z 03005KT 07/M03 A3036 RMK A01 T00731027  RH  049%=      5-min Rain = 0
KTH1 131418Z 04005KT 07/M03 A3036 RMK A01 T00731026  RH  049%=      5-min Rain = 0
KTH1 131419Z 04006KT 07/M03 A3036 RMK A01 T00731026  RH  049%=      5-min Rain = 0
KTH1 131420Z 04005KT 07/M03 A3036 RMK A01 T00741025  RH  049%=      5-min Rain = 0
KTH1 131421Z 04006KT 07/M03 A3036 RMK A01 T00741026  RH  049%=      5-min Rain = 0
KTH1 131422Z 05005KT 07/M03 A3036 RMK A01 T00741026  RH  049%=      5-min Rain = 0
KTH1 131423Z 04004KT 08/M02 A3036 RMK A01 T00751024  RH  050%=      5-min Rain = 0
KTH1 131424Z 04004KT 08/M02 A3036 RMK A01 T00761022  RH  050%=      5-min Rain = 0
KTH1 131425Z 03005KT 08/M02 A3036 RMK A01 T00781022  RH  049%=      5-min Rain = 0
KTH1 131426Z 03006KT 08/M03 A3036 RMK A01 T00791025  RH  048%=      5-min Rain = 0
KTH1 131427Z 05004KT 08/M03 A3036 RMK A01 T00781025  RH  048%=      5-min Rain = 0
KTH1 131428Z 04005KT 08/M03 A3036 RMK A01 T00791025  RH  048%=      5-min Rain = 0
KTH1 131429Z 06005KT 08/M02 A3036 RMK A01 T00801024  RH  048%=      5-min Rain = 0
KTH1 131430Z 06006KT 08/M03 A3036 RMK A01 T00821026  RH  047%=      5-min Rain = 0
KTH1 131431Z 05004KT 08/M03 A3036 RMK A01 T00831026  RH  046%=      5-min Rain = 0
KTH1 131432Z 05006KT 08/M03 A3036 RMK A01 T00841025  RH  046%=      5-min Rain = 0
KTH1 131433Z 05005KT 09/M03 A3036 RMK A01 T00851027  RH  045%=      5-min Rain = 0
KTH1 131434Z 06006KT 09/M03 A3036 RMK A01 T00851025  RH  046%=      5-min Rain = 0
KTH1 131435Z 06007KT 09/M03 A3036 RMK A01 T00851028  RH  045%=      5-min Rain = 0
KTH1 131436Z 06005KT 09/M03 A3036 RMK A01 T00851027  RH  045%=      5-min Rain = 0
KTH1 131437Z 05006KT 09/M03 A3036 RMK A01 T00861026  RH  045%=      5-min Rain = 0
KTH1 131438Z 05007KT 09/M03 A3036 RMK A01 T00861029  RH  044%=      5-min Rain = 0
KTH1 131439Z 05005KT 09/M03 A3036 RMK A01 T00861027  RH  045%=      5-min Rain = 0
KTH1 131440Z 05005KT 09/M03 A3036 RMK A01 T00861026  RH  045%=      5-min Rain = 0
KTH1 131441Z 05006KT 09/M03 A3036 RMK A01 T00861030  RH  044%=      5-min Rain = 0
KTH1 131442Z 06006KT 09/M03 A3036 RMK A01 T00861026  RH  045%=      5-min Rain = 0
KTH1 131443Z 05007KT 09/M03 A3036 RMK A01 T00881025  RH  045%=      5-min Rain = 0
KTH1 131444Z 05006KT 09/M03 A3036 RMK A01 T00891029  RH  044%=      5-min Rain = 0
KTH1 131445Z 05005KT 09/M03 A3036 RMK A01 T00891025  RH  045%=      5-min Rain = 0
KTH1 131446Z 06005KT 09/M03 A3036 RMK A01 T00891029  RH  044%=      5-min Rain = 0
KTH1 131447Z 05006KT 09/M03 A3036 RMK A01 T00871028  RH  044%=      5-min Rain = 0
KTH1 131448Z 06005KT 09/M03 A3036 RMK A01 T00881025  RH  045%=      5-min Rain = 0
KTH1 131449Z 06006KT 09/M03 A3036 RMK A01 T00901027  RH  044%=      5-min Rain = 0
KTH1 131450Z 05005KT 09/M03 A3036 RMK A01 T00911025  RH  044%=      5-min Rain = 0
KTH1 131451Z 05007KT 09/M02 A3036 RMK A01 T00931023  RH  044%=      5-min Rain = 0
KTH1 131452Z 04006KT 09/M03 A3036 RMK A01 T00941029  RH  042%=      5-min Rain = 0
KTH1 131453Z 05004KT 09/M03 A3036 RMK A01 T00941028  RH  042%=      5-min Rain = 0
KTH1 131454Z 06006KT 09/M03 A3036 RMK A01 T00941027  RH  042%=      5-min Rain = 0
KTH1 131455Z 07007KT 10/M03 A3036 RMK A01 T00961027  RH  042%=      5-min Rain = 0
KTH1 131456Z 07006KT 10/M03 A3036 RMK A01 T00961031  RH  041%=      5-min Rain = 0
KTH1 131457Z 07007KT 10/M03 A3036 RMK A01 T00951032  RH  041%=      5-min Rain = 0
KTH1 131458Z 07007KT 09/M03 A3036 RMK A01 T00941032  RH  041%=      5-min Rain = 0
KTH1 131459Z 08007KT 09/M03 A3036 RMK A01 T00941031  RH  041%=      5-min Rain = 0
KTH1 131500Z 07006KT 09/M03 A3036 RMK A01 T00941031  RH  041%=      5-min Rain = 0
KTH1 131501Z 07005KT 09/M03 A3036 RMK A01 T00931029  RH  042%=      5-min Rain = 0
KTH1 131502Z 08005KT 10/M02 A3036 RMK A01 T00971023  RH  043%=      5-min Rain = 0
KTH1 131503Z 09007KT 10/M02 A3036 RMK A01 T01001024  RH  042%=      5-min Rain = 0
KTH1 131504Z 09006KT 10/M03 A3036 RMK A01 T01001026  RH  041%=      5-min Rain = 0
KTH1 131505Z 08006KT 10/M02 A3036 RMK A01 T01011024  RH  042%=      5-min Rain = 0
KTH1 131506Z 08007KT 10/M03 A3036 RMK A01 T01011027  RH  041%=      5-min Rain = 0
KTH1 131507Z 08006KT 10/M03 A3036 RMK A01 T01001025  RH  041%=      5-min Rain = 0
KTH1 131508Z 09007KT 10/M03 A3036 RMK A01 T01001026  RH  041%=      5-min Rain = 0
KTH1 131509Z 08006KT 10/M03 A3036 RMK A01 T00991028  RH  041%=      5-min Rain = 0
KTH1 131510Z 08005KT 10/M03 A3036 RMK A01 T00991026  RH  042%=      5-min Rain = 0
KTH1 131511Z 08005KT 10/M02 A3036 RMK A01 T01001023  RH  042%=      5-min Rain = 0
KTH1 131512Z 06007KT 10/M02 A3036 RMK A01 T01011023  RH  042%=      5-min Rain = 0
KTH1 131513Z 06007KT 10/M02 A3036 RMK A01 T01021022  RH  042%=      5-min Rain = 0
KTH1 131514Z 06009KT 10/M02 A3037 RMK A01 T01041023  RH  041%=      5-min Rain = 0
KTH1 131515Z 06007KT 10/M03 A3037 RMK A01 T01041026  RH  040%=      5-min Rain = 0
KTH1 131516Z 06006KT 10/M03 A3037 RMK A01 T01041027  RH  040%=      5-min Rain = 0
KTH1 131517Z 08007KT 10/M03 A3037 RMK A01 T01041026  RH  040%=      5-min Rain = 0
KTH1 131518Z 08008KT 11/M03 A3037 RMK A01 T01051026  RH  040%=      5-min Rain = 0
KTH1 131519Z 07009KT 11/M03 A3037 RMK A01 T01061032  RH  038%=      5-min Rain = 0
KTH1 131520Z 07007KT 11/M04 A3037 RMK A01 T01061036  RH  037%=      5-min Rain = 0
KTH1 131521Z 08007KT 11/M04 A3037 RMK A01 T01051035  RH  037%=      5-min Rain = 0
KTH1 131522Z 06008KT 11/M04 A3037 RMK A01 T01051035  RH  037%=      5-min Rain = 0
KTH1 131523Z 06007KT 11/M04 A3037 RMK A01 T01051037  RH  037%=      5-min Rain = 0
KTH1 131524Z 07008KT 10/M04 A3037 RMK A01 T01041036  RH  037%=      5-min Rain = 0
KTH1 131525Z 07008KT 11/M04 A3037 RMK A01 T01051037  RH  037%=      5-min Rain = 0
KTH1 131526Z 07009KT 11/M04 A3037 RMK A01 T01051039  RH  036%=      5-min Rain = 0
KTH1 131527Z 07009KT 11/M04 A3037 RMK A01 T01061038  RH  036%=      5-min Rain = 0
KTH1 131528Z 07008KT 11/M04 A3037 RMK A01 T01061035  RH  037%=      5-min Rain = 0
KTH1 131529Z 08008KT 11/M03 A3037 RMK A01 T01071032  RH  037%=      5-min Rain = 0
KTH1 131530Z 08006KT 11/M03 A3037 RMK A01 T01091033  RH  037%=      5-min Rain = 0
KTH1 131531Z 08007KT 11/M03 A3037 RMK A01 T01111030  RH  037%=      5-min Rain = 0
KTH1 131532Z 08008KT 11/M03 A3037 RMK A01 T01141029  RH  036%=      5-min Rain = 0
KTH1 131533Z 07008KT 12/M04 A3037 RMK A01 T01151035  RH  035%=      5-min Rain = 0
KTH1 131534Z 07007KT 11/M04 A3037 RMK A01 T01131037  RH  035%=      5-min Rain = 0
KTH1 131535Z 08008KT 11/M04 A3037 RMK A01 T01121036  RH  035%=      5-min Rain = 0
KTH1 131536Z 07007KT 11/M04 A3037 RMK A01 T01111039  RH  035%=      5-min Rain = 0
KTH1 131537Z 08009KT 11/M04 A3037 RMK A01 T01111039  RH  035%=      5-min Rain = 0
KTH1 131538Z 08007KT 11/M04 A3037 RMK A01 T01111036  RH  035%=      5-min Rain = 0
KTH1 131539Z 08009KT 11/M03 A3037 RMK A01 T01121034  RH  036%=      5-min Rain = 0
KTH1 131540Z 09007KT 11/M04 A3037 RMK A01 T01131035  RH  035%=      5-min Rain = 0
KTH1 131541Z 07008KT 11/M03 A3037 RMK A01 T01141030  RH  037%=      5-min Rain = 0
KTH1 131542Z 07008KT 12/M03 A3037 RMK A01 T01161032  RH  035%=      5-min Rain = 0
KTH1 131543Z 07006KT 12/M04 A3037 RMK A01 T01151035  RH  035%=      5-min Rain = 0
KTH1 131544Z 07008KT 12/M03 A3037 RMK A01 T01151034  RH  035%=      5-min Rain = 0
KTH1 131545Z 08006KT 12/M03 A3037 RMK A01 T01161034  RH  035%=      5-min Rain = 0
KTH1 131546Z 07007KT 12/M03 A3037 RMK A01 T01161034  RH  035%=      5-min Rain = 0
KTH1 131547Z 07010KT 12/M04 A3037 RMK A01 T01151036  RH  034%=      5-min Rain = 0
KTH1 131548Z 06010KT 11/M04 A3037 RMK A01 T01141039  RH  034%=      5-min Rain = 0
KTH1 131549Z 07008KT 11/M04 A3037 RMK A01 T01141040  RH  034%=      5-min Rain = 0
KTH1 131550Z 08009KT 11/M04 A3037 RMK A01 T01141040  RH  034%=      5-min Rain = 0
KTH1 131551Z 07010KT 11/M04 A3037 RMK A01 T01141039  RH  034%=      5-min Rain = 0
KTH1 131552Z 08009KT 11/M04 A3037 RMK A01 T01141042  RH  033%=      5-min Rain = 0
KTH1 131553Z 08009KT 11/M04 A3037 RMK A01 T01141041  RH  034%=      5-min Rain = 0
KTH1 131554Z 08008KT 11/M04 A3037 RMK A01 T01141042  RH  033%=      5-min Rain = 0
KTH1 131555Z 07006KT 11/M04 A3037 RMK A01 T01131041  RH  034%=      5-min Rain = 0
KTH1 131556Z 07010KT 12/M04 A3037 RMK A01 T01151038  RH  034%=      5-min Rain = 0
KTH1 131557Z 07009KT 12/M04 A3037 RMK A01 T01161044  RH  032%=      5-min Rain = 0
KTH1 131558Z 08007KT 12/M04 A3037 RMK A01 T01151044  RH  032%=      5-min Rain = 0
KTH1 131559Z 07008KT 12/M04 A3037 RMK A01 T01161040  RH  033%=      5-min Rain = 0
KTH1 131600Z 07008KT 12/M04 A3037 RMK A01 T01181036  RH  034%=      5-min Rain = 0
KTH1 131601Z 07007KT 12/M04 A3037 RMK A01 T01201039  RH  033%=      5-min Rain = 0
KTH1 131602Z 07005KT 12/M04 A3037 RMK A01 T01201039  RH  033%=      5-min Rain = 0
KTH1 131603Z 04007KT 12/M04 A3037 RMK A01 T01211035  RH  033%=      5-min Rain = 0
KTH1 131604Z 05006KT 12/M04 A3037 RMK A01 T01221040  RH  032%=      5-min Rain = 0
KTH1 131605Z 04006KT 12/M04 A3037 RMK A01 T01231040  RH  032%=      5-min Rain = 0
KTH1 131606Z 05008KT 12/M04 A3037 RMK A01 T01231039  RH  032%=      5-min Rain = 0
KTH1 131607Z 05007KT 12/M04 A3037 RMK A01 T01241037  RH  032%=      5-min Rain = 0
KTH1 131608Z 04008KT 13/M04 A3037 RMK A01 T01261036  RH  032%=      5-min Rain = 0
KTH1 131609Z 06008KT 13/M04 A3037 RMK A01 T01261036  RH  032%=      5-min Rain = 0
KTH1 131610Z 07007KT 13/M03 A3037 RMK A01 T01251033  RH  033%=      5-min Rain = 0
KTH1 131611Z 06009KT 12/M04 A3037 RMK A01 T01241036  RH  033%=      5-min Rain = 0
KTH1 131612Z 05009KT 12/M04 A3037 RMK A01 T01241037  RH  032%=      5-min Rain = 0
KTH1 131613Z 07008KT 12/M04 A3037 RMK A01 T01241035  RH  033%=      5-min Rain = 0
KTH1 131614Z 07006KT 12/M03 A3037 RMK A01 T01231033  RH  034%=      5-min Rain = 0
KTH1 131615Z 05008KT 12/M03 A3037 RMK A01 T01241032  RH  034%=      5-min Rain = 0
KTH1 131616Z 05009KT 12/M04 A3037 RMK A01 T01241035  RH  033%=      5-min Rain = 0
KTH1 131617Z 04008KT 13/M04 A3037 RMK A01 T01251039  RH  032%=      5-min Rain = 0
KTH1 131618Z 04009KT 12/M04 A3037 RMK A01 T01241037  RH  032%=      5-min Rain = 0
KTH1 131619Z 05008KT 12/M04 A3037 RMK A01 T01241039  RH  032%=      5-min Rain = 0
KTH1 131620Z 05008KT 12/M04 A3037 RMK A01 T01241038  RH  032%=      5-min Rain = 0
KTH1 131621Z 04006KT 12/M04 A3037 RMK A01 T01231036  RH  033%=      5-min Rain = 0
KTH1 131622Z 02008KT 12/M04 A3037 RMK A01 T01231037  RH  032%=      5-min Rain = 0
KTH1 131623Z 04009KT 12/M04 A3037 RMK A01 T01231036  RH  033%=      5-min Rain = 0
KTH1 131624Z 04009KT 13/M03 A3038 RMK A01 T01251034  RH  033%=      5-min Rain = 0
KTH1 131625Z 06006KT 13/M04 A3038 RMK A01 T01261035  RH  032%=      5-min Rain = 0
KTH1 131626Z 07009KT 13/M04 A3038 RMK A01 T01271036  RH  032%=      5-min Rain = 0
KTH1 131627Z 06008KT 13/M04 A3038 RMK A01 T01271035  RH  032%=      5-min Rain = 0
KTH1 131628Z 06010KT 13/M04 A3038 RMK A01 T01271037  RH  032%=      5-min Rain = 0
KTH1 131629Z 03011KT 13/M04 A3038 RMK A01 T01271040  RH  031%=      5-min Rain = 0
KTH1 131630Z 03009KT 13/M04 A3038 RMK A01 T01251042  RH  031%=      5-min Rain = 0
KTH1 131631Z 04009KT 12/M04 A3038 RMK A01 T01241042  RH  031%=      5-min Rain = 0
KTH1 131632Z 05007KT 12/M04 A3038 RMK A01 T01231041  RH  031%=      5-min Rain = 0
KTH1 131633Z 05008KT 12/M04 A3038 RMK A01 T01241041  RH  031%=      5-min Rain = 0
KTH1 131634Z 04006KT 13/M04 A3038 RMK A01 T01251038  RH  032%=      5-min Rain = 0
KTH1 131635Z 06007KT 13/M04 A3038 RMK A01 T01271035  RH  032%=      5-min Rain = 0
KTH1 131636Z 05008KT 13/M03 A3038 RMK A01 T01301030  RH  033%=      5-min Rain = 0
KTH1 131637Z 04011KT 14/M03 A3038 RMK A01 T01351034  RH  031%=      5-min Rain = 0
KTH1 131638Z 04010KT 13/M04 A3038 RMK A01 T01321044  RH  029%=      5-min Rain = 0
KTH1 131639Z 05010KT 13/M04 A3038 RMK A01 T01281044  RH  030%=      5-min Rain = 0
KTH1 131640Z 06008KT 13/M04 A3038 RMK A01 T01271041  RH  031%=      5-min Rain = 0
KTH1 131641Z 06006KT 13/M04 A3038 RMK A01 T01281037  RH  032%=      5-min Rain = 0
KTH1 131642Z 05006KT 13/M04 A3038 RMK A01 T01311035  RH  031%=      5-min Rain = 0
KTH1 131643Z 06008G14KT 13/M04 A3038 RMK A01 T01331035  RH  031%=      5-min Rain = 0
KTH1 131644Z 06009KT 13/M04 A3038 RMK A01 T01341038  RH  030%=      5-min Rain = 0
KTH1 131645Z 06008KT 13/M04 A3038 RMK A01 T01341038  RH  030%=      5-min Rain = 0
KTH1 131646Z 04010KT 13/M04 A3038 RMK A01 T01341037  RH  030%=      5-min Rain = 0
KTH1 131647Z 05007KT 13/M04 A3038 RMK A01 T01341041  RH  029%=      5-min Rain = 0
KTH1 131648Z 05008KT 13/M04 A3038 RMK A01 T01321041  RH  030%=      5-min Rain = 0
KTH1 131649Z 05009G14KT 13/M04 A3038 RMK A01 T01301043  RH  030%=      5-min Rain = 0
KTH1 131650Z 05011KT 13/M04 A3038 RMK A01 T01281043  RH  030%=      5-min Rain = 0
KTH1 131651Z 04011KT 13/M04 A3038 RMK A01 T01291042  RH  030%=      5-min Rain = 0
KTH1 131652Z 04007KT 13/M04 A3038 RMK A01 T01291043  RH  030%=      5-min Rain = 0
KTH1 131653Z 04006KT 13/M04 A3038 RMK A01 T01301041  RH  030%=      5-min Rain = 0
KTH1 131654Z 06009KT 13/M04 A3038 RMK A01 T01301039  RH  031%=      5-min Rain = 0
KTH1 131655Z 05009KT 13/M04 A3038 RMK A01 T01301038  RH  031%=      5-min Rain = 0
KTH1 131656Z 04007KT 13/M04 A3038 RMK A01 T01301038  RH  031%=      5-min Rain = 0
KTH1 131657Z 05008KT 13/M04 A3038 RMK A01 T01291039  RH  031%=      5-min Rain = 0
KTH1 131658Z 05008KT 13/M04 A3038 RMK A01 T01301035  RH  032%=      5-min Rain = 0
KTH1 131659Z 05009KT 13/M04 A3038 RMK A01 T01311036  RH  031%=      5-min Rain = 0
KTH1 131700Z 06006KT 13/M04 A3038 RMK A01 T01301038  RH  031%=      5-min Rain = 0
KTH1 131701Z 08005KT 13/M04 A3038 RMK A01 T01291035  RH  032%=      5-min Rain = 0
KTH1 131702Z 04010KT 13/M03 A3038 RMK A01 T01311031  RH  032%=      5-min Rain = 0
KTH1 131703Z 05011KT 13/M03 A3038 RMK A01 T01331034  RH  031%=      5-min Rain = 0
KTH1 131704Z 06009KT 13/M03 A3038 RMK A01 T01301034  RH  032%=      5-min Rain = 0
KTH1 131705Z 06007KT 13/M03 A3038 RMK A01 T01301031  RH  032%=      5-min Rain = 0
KTH1 131706Z 05009KT 13/M03 A3038 RMK A01 T01321031  RH  032%=      5-min Rain = 0
KTH1 131707Z 06009KT 13/M03 A3038 RMK A01 T01331031  RH  032%=      5-min Rain = 0
KTH1 131708Z 05007KT 13/M03 A3038 RMK A01 T01331029  RH  032%=      5-min Rain = 0
KTH1 131709Z 04008KT 14/M03 A3038 RMK A01 T01351033  RH  031%=      5-min Rain = 0
KTH1 131710Z 05008KT 13/M03 A3038 RMK A01 T01341034  RH  031%=      5-min Rain = 0
KTH1 131711Z 08005KT 13/M04 A3038 RMK A01 T01321036  RH  031%=      5-min Rain = 0
KTH1 131712Z 06006KT 13/M04 A3038 RMK A01 T01301036  RH  031%=      5-min Rain = 0
KTH1 131713Z 07008KT 13/M03 A3038 RMK A01 T01311032  RH  032%=      5-min Rain = 0
KTH1 131714Z 06012KT 13/M03 A3038 RMK A01 T01321034  RH  031%=      5-min Rain = 0
KTH1 131715Z 06010KT 13/M03 A3038 RMK A01 T01321034  RH  031%=      5-min Rain = 0
KTH1 131716Z 06008KT 13/M03 A3038 RMK A01 T01321032  RH  032%=      5-min Rain = 0
KTH1 131717Z 06007KT 13/M03 A3038 RMK A01 T01331033  RH  031%=      5-min Rain = 0
KTH1 131718Z 05006KT 13/M04 A3038 RMK A01 T01331035  RH  031%=      5-min Rain = 0
KTH1 131719Z 06004KT 13/M04 A3038 RMK A01 T01321039  RH  030%=      5-min Rain = 0
KTH1 131720Z 08005KT 13/M04 A3037 RMK A01 T01311036  RH  031%=      5-min Rain = 0
KTH1 131721Z 09004KT 13/M04 A3037 RMK A01 T01321035  RH  031%=      5-min Rain = 0
KTH1 131722Z 06006KT 13/M03 A3037 RMK A01 T01341032  RH  032%=      5-min Rain = 0
KTH1 131723Z 07009KT 14/M03 A3037 RMK A01 T01351034  RH  031%=      5-min Rain = 0
KTH1 131724Z 07009KT 14/M03 A3037 RMK A01 T01351032  RH  031%=      5-min Rain = 0
KTH1 131725Z 07009KT 14/M04 A3037 RMK A01 T01351037  RH  030%=      5-min Rain = 0
KTH1 131726Z 07005KT 13/M04 A3037 RMK A01 T01321039  RH  030%=      5-min Rain = 0
KTH1 131727Z 08006KT 13/M04 A3037 RMK A01 T01321037  RH  031%=      5-min Rain = 0
KTH1 131728Z 08006KT 13/M04 A3037 RMK A01 T01321036  RH  031%=      5-min Rain = 0
KTH1 131729Z 07006KT 14/M03 A3037 RMK A01 T01361028  RH  032%=      5-min Rain = 0
KTH1 131730Z 09008KT 14/M03 A3037 RMK A01 T01381034  RH  030%=      5-min Rain = 0
KTH1 131731Z 07008KT 14/M04 A3037 RMK A01 T01371035  RH  030%=      5-min Rain = 0
KTH1 131732Z 06007KT 14/M03 A3037 RMK A01 T01391027  RH  032%=      5-min Rain = 0
KTH1 131733Z 08010KT 14/M03 A3037 RMK A01 T01411032  RH  030%=      5-min Rain = 0
KTH1 131734Z 07008KT 14/M03 A3037 RMK A01 T01391034  RH  030%=      5-min Rain = 0
KTH1 131735Z 07010KT 14/M03 A3037 RMK A01 T01381031  RH  031%=      5-min Rain = 0
KTH1 131736Z 06007KT 14/M04 A3037 RMK A01 T01371037  RH  030%=      5-min Rain = 0
KTH1 131737Z 08007KT 14/M04 A3037 RMK A01 T01351035  RH  031%=      5-min Rain = 0
KTH1 131738Z 09008KT 14/M03 A3037 RMK A01 T01371032  RH  031%=      5-min Rain = 0
KTH1 131739Z 09006G11KT 14/M04 A3036 RMK A01 T01371035  RH  030%=      5-min Rain = 0
KTH1 131740Z 05011KT 14/M03 A3036 RMK A01 T01381030  RH  031%=      5-min Rain = 0
KTH1 131741Z 05008KT 14/M03 A3036 RMK A01 T01401032  RH  030%=      5-min Rain = 0
KTH1 131742Z 03007KT 14/M03 A3036 RMK A01 T01411034  RH  030%=      5-min Rain = 0
KTH1 131743Z 06007KT 14/M03 A3036 RMK A01 T01401034  RH  030%=      5-min Rain = 0
KTH1 131744Z 07005KT 14/M04 A3036 RMK A01 T01401035  RH  029%=      5-min Rain = 0
KTH1 131745Z 09005KT 14/M04 A3036 RMK A01 T01391035  RH  030%=      5-min Rain = 0
KTH1 131746Z 07006KT 14/M03 A3036 RMK A01 T01391033  RH  030%=      5-min Rain = 0
KTH1 131747Z 05005KT 14/M03 A3036 RMK A01 T01401031  RH  030%=      5-min Rain = 0
KTH1 131748Z 05006KT 14/M04 A3036 RMK A01 T01411036  RH  029%=      5-min Rain = 0
KTH1 131749Z 06007KT 14/M03 A3036 RMK A01 T01401034  RH  030%=      5-min Rain = 0
KTH1 131750Z 03006KT 14/M03 A3036 RMK A01 T01401034  RH  030%=      5-min Rain = 0
KTH1 131751Z 03006KT 14/M04 A3036 RMK A01 T01391036  RH  029%=      5-min Rain = 0
KTH1 131752Z 04006KT 14/M03 A3036 RMK A01 T01421028  RH  031%=      5-min Rain = 0
KTH1 131753Z 01004KT 15/M03 A3036 RMK A01 T01451033  RH  029%=      5-min Rain = 0
KTH1 131754Z 05006KT 15/M03 A3036 RMK A01 T01451032  RH  029%=      5-min Rain = 0
KTH1 131755Z 07007KT 15/M03 A3036 RMK A01 T01461028  RH  030%=      5-min Rain = 0
KTH1 131756Z 06006KT 15/M02 A3036 RMK A01 T01491024  RH  030%=      5-min Rain = 0
KTH1 131757Z 04007KT 15/M03 A3036 RMK A01 T01501030  RH  029%=      5-min Rain = 0
KTH1 131758Z 05007KT 15/M03 A3036 RMK A01 T01491031  RH  029%=      5-min Rain = 0
KTH1 131759Z 05008KT 15/M03 A3036 RMK A01 T01511025  RH  030%=      5-min Rain = 0
KTH1 131800Z 02006KT 15/M03 A3036 RMK A01 T01521030  RH  028%=      5-min Rain = 0
KTH1 131801Z 02007KT 15/M03 A3036 RMK A01 T01511034  RH  028%=      5-min Rain = 0
KTH1 131802Z 02008KT 15/M04 A3036 RMK A01 T01501035  RH  028%=      5-min Rain = 0
KTH1 131803Z 05005KT 15/M03 A3036 RMK A01 T01501033  RH  028%=      5-min Rain = 0
KTH1 131804Z 06003KT 15/M04 A3036 RMK A01 T01461038  RH  028%=      5-min Rain = 0
KTH1 131805Z 01004KT 15/M03 A3036 RMK A01 T01451032  RH  029%=      5-min Rain = 0
KTH1 131806Z 05006KT 15/M03 A3036 RMK A01 T01471033  RH  029%=      5-min Rain = 0
KTH1 131807Z 07007KT 15/M03 A3036 RMK A01 T01471030  RH  029%=      5-min Rain = 0
KTH1 131808Z 03006KT 15/M03 A3035 RMK A01 T01471031  RH  029%=      5-min Rain = 0
KTH1 131809Z 05006KT 15/M03 A3035 RMK A01 T01481030  RH  029%=      5-min Rain = 0
KTH1 131810Z 05006KT 15/M03 A3035 RMK A01 T01511026  RH  029%=      5-min Rain = 0
KTH1 131811Z 03005KT 15/M03 A3035 RMK A01 T01541029  RH  028%=      5-min Rain = 0
KTH1 131812Z 04004KT 15/M03 A3035 RMK A01 T01521034  RH  027%=      5-min Rain = 0
KTH1 131813Z 04006G11KT 15/M03 A3035 RMK A01 T01501033  RH  028%=      5-min Rain = 0
KTH1 131814Z 04009KT 15/M03 A3035 RMK A01 T01511031  RH  028%=      5-min Rain = 0
KTH1 131815Z 06008KT 15/M03 A3035 RMK A01 T01501031  RH  029%=      5-min Rain = 0
KTH1 131816Z 07008KT 15/M03 A3035 RMK A01 T01491031  RH  029%=      5-min Rain = 0
KTH1 131817Z 09006KT 15/M03 A3035 RMK A01 T01481033  RH  028%=      5-min Rain = 0
KTH1 131818Z 06007KT 15/M03 A3035 RMK A01 T01461031  RH  029%=      5-min Rain = 0
KTH1 131819Z 03005KT 15/M03 A3035 RMK A01 T01461034  RH  029%=      5-min Rain = 0
KTH1 131820Z 07006KT 15/M03 A3035 RMK A01 T01451034  RH  029%=      5-min Rain = 0
KTH1 131821Z 02008KT 15/M03 A3035 RMK A01 T01471027  RH  030%=      5-min Rain = 0
KTH1 131822Z 05008KT 15/M03 A3035 RMK A01 T01501031  RH  029%=      5-min Rain = 0
KTH1 131823Z 04007KT 15/M03 A3035 RMK A01 T01521025  RH  029%=      5-min Rain = 0
KTH1 131824Z 03006KT 15/M03 A3035 RMK A01 T01521031  RH  028%=      5-min Rain = 0
KTH1 131825Z 04004KT 15/M03 A3035 RMK A01 T01521031  RH  028%=      5-min Rain = 0
KTH1 131826Z 06004KT 15/M03 A3035 RMK A01 T01511028  RH  029%=      5-min Rain = 0
KTH1 131827Z 02003KT 15/M03 A3035 RMK A01 T01521030  RH  028%=      5-min Rain = 0
KTH1 131828Z 02006G11KT 15/M04 A3035 RMK A01 T01501036  RH  028%=      5-min Rain = 0
KTH1 131829Z 03009KT 15/M03 A3035 RMK A01 T01501029  RH  029%=      5-min Rain = 0
KTH1 131830Z 02008KT 15/M03 A3035 RMK A01 T01521031  RH  028%=      5-min Rain = 0
KTH1 131831Z 02008KT 15/M03 A3035 RMK A01 T01501033  RH  028%=      5-min Rain = 0
KTH1 131832Z 02007KT 15/M03 A3034 RMK A01 T01501033  RH  028%=      5-min Rain = 0
KTH1 131833Z 06007KT 15/M03 A3034 RMK A01 T01511029  RH  029%=      5-min Rain = 0
KTH1 131834Z 09005KT 15/M03 A3034 RMK A01 T01521031  RH  028%=      5-min Rain = 0
KTH1 131835Z 05007KT 15/M03 A3034 RMK A01 T01511026  RH  029%=      5-min Rain = 0
KTH1 131836Z 05007KT 15/M02 A3034 RMK A01 T01531024  RH  029%=      5-min Rain = 0
KTH1 131837Z 05006KT 15/M03 A3034 RMK A01 T01531026  RH  029%=      5-min Rain = 0
KTH1 131838Z 06008KT 16/M02 A3034 RMK A01 T01551024  RH  029%=      5-min Rain = 0
KTH1 131839Z 03007KT 16/M03 A3034 RMK A01 T01561025  RH  029%=      5-min Rain = 0
KTH1 131840Z 04005KT 16/M03 A3034 RMK A01 T01561028  RH  028%=      5-min Rain = 0
KTH1 131841Z 06006KT 16/M03 A3034 RMK A01 T01551030  RH  028%=      5-min Rain = 0
KTH1 131842Z 06007KT 15/M03 A3034 RMK A01 T01531028  RH  029%=      5-min Rain = 0
KTH1 131843Z 05007KT 15/M03 A3034 RMK A01 T01531027  RH  029%=      5-min Rain = 0
KTH1 131844Z 06007KT 15/M03 A3034 RMK A01 T01511033  RH  028%=      5-min Rain = 0
KTH1 131845Z 09007KT 15/M03 A3034 RMK A01 T01491029  RH  029%=      5-min Rain = 0
KTH1 131846Z 08006G11KT 15/M03 A3033 RMK A01 T01481027  RH  030%=      5-min Rain = 0
KTH1 131847Z 09008KT 15/M03 A3033 RMK A01 T01501026  RH  030%=      5-min Rain = 0
KTH1 131848Z 08008KT 15/M03 A3033 RMK A01 T01511027  RH  029%=      5-min Rain = 0
KTH1 131849Z 05006KT 15/M02 A3033 RMK A01 T01521022  RH  030%=      5-min Rain = 0
KTH1 131850Z 03009KT 16/M03 A3033 RMK A01 T01561025  RH  029%=      5-min Rain = 0
KTH1 131851Z 03007KT 16/M03 A3033 RMK A01 T01561032  RH  027%=      5-min Rain = 0
KTH1 131852Z 05008KT 15/M03 A3033 RMK A01 T01531033  RH  027%=      5-min Rain = 0
KTH1 131853Z 03009KT 15/M03 A3033 RMK A01 T01531027  RH  029%=      5-min Rain = 0
KTH1 131854Z 02008KT 16/M03 A3033 RMK A01 T01551027  RH  028%=      5-min Rain = 0
KTH1 131855Z 02010G15KT 16/M03 A3033 RMK A01 T01571028  RH  028%=      5-min Rain = 0
KTH1 131856Z 00009KT 15/M03 A3033 RMK A01 T01541034  RH  027%=      5-min Rain = 0
KTH1 131857Z 02006KT 15/M03 A3033 RMK A01 T01521032  RH  028%=      5-min Rain = 0
KTH1 131858Z 02009KT 15/M03 A3033 RMK A01 T01531031  RH  028%=      5-min Rain = 0
KTH1 131859Z 01007KT 15/M03 A3033 RMK A01 T01521030  RH  028%=      5-min Rain = 0
KTH1 131900Z 35005KT 15/M03 A3032 RMK A01 T01521029  RH  029%=      5-min Rain = 0
KTH1 131901Z 02005KT 15/M03 A3032 RMK A01 T01541027  RH  029%=      5-min Rain = 0
KTH1 131902Z 03008KT 16/M03 A3032 RMK A01 T01561027  RH  028%=      5-min Rain = 0
KTH1 131903Z 03007KT 16/M03 A3032 RMK A01 T01571026  RH  028%=      5-min Rain = 0
KTH1 131904Z 02006KT 16/M03 A3032 RMK A01 T01591025  RH  028%=      5-min Rain = 0
KTH1 131905Z 02007KT 16/M03 A3032 RMK A01 T01591029  RH  027%=      5-min Rain = 0
KTH1 131906Z 03004KT 16/M03 A3032 RMK A01 T01551033  RH  027%=      5-min Rain = 0
KTH1 131907Z 02004KT 15/M03 A3032 RMK A01 T01541029  RH  028%=      5-min Rain = 0
KTH1 131908Z 02006G12KT 16/M03 A3032 RMK A01 T01551027  RH  028%=      5-min Rain = 0
KTH1 131909Z 04011KT 16/M03 A3032 RMK A01 T01581026  RH  028%=      5-min Rain = 0
KTH1 131910Z 04011G16KT 16/M02 A3032 RMK A01 T01601021  RH  029%=      5-min Rain = 0
KTH1 131911Z 03010KT 16/M02 A3032 RMK A01 T01621023  RH  028%=      5-min Rain = 0
KTH1 131912Z 04007KT 16/M03 A3032 RMK A01 T01611028  RH  027%=      5-min Rain = 0
KTH1 131913Z 03006KT 16/M03 A3032 RMK A01 T01581030  RH  027%=      5-min Rain = 0
KTH1 131914Z 03006KT 16/M03 A3032 RMK A01 T01571025  RH  029%=      5-min Rain = 0
KTH1 131915Z 03005KT 16/M03 A3032 RMK A01 T01581027  RH  028%=      5-min Rain = 0
KTH1 131916Z 04005KT 16/M03 A3032 RMK A01 T01591025  RH  028%=      5-min Rain = 0
KTH1 131917Z 05005KT 16/M03 A3032 RMK A01 T01581025  RH  028%=      5-min Rain = 0
KTH1 131918Z 35005KT 16/M03 A3032 RMK A01 T01571026  RH  028%=      5-min Rain = 0
KTH1 131919Z 04005KT 16/M02 A3032 RMK A01 T01581023  RH  029%=      5-min Rain = 0
KTH1 131920Z 05007KT 16/M02 A3032 RMK A01 T01601022  RH  029%=      5-min Rain = 0
KTH1 131921Z 05008KT 16/M02 A3032 RMK A01 T01591023  RH  028%=      5-min Rain = 0
KTH1 131922Z 04008KT 16/M03 A3032 RMK A01 T01571025  RH  029%=      5-min Rain = 0
KTH1 131923Z 03007KT 16/M03 A3032 RMK A01 T01561027  RH  028%=      5-min Rain = 0
KTH1 131924Z 03009KT 16/M02 A3032 RMK A01 T01571022  RH  029%=      5-min Rain = 0
KTH1 131925Z 03008G13KT 16/M02 A3032 RMK A01 T01621024  RH  028%=      5-min Rain = 0
KTH1 131926Z 04010KT 16/M02 A3032 RMK A01 T01621022  RH  028%=      5-min Rain = 0
KTH1 131927Z 01006KT 16/M03 A3032 RMK A01 T01621026  RH  028%=      5-min Rain = 0
KTH1 131928Z 03004KT 16/M03 A3031 RMK A01 T01581032  RH  027%=      5-min Rain = 0
KTH1 131929Z 06005KT 16/M03 A3031 RMK A01 T01551027  RH  028%=      5-min Rain = 0
KTH1 131930Z 07008KT 16/M02 A3031 RMK A01 T01561021  RH  030%=      5-min Rain = 0
KTH1 131931Z 04008KT 16/M02 A3031 RMK A01 T01591017  RH  030%=      5-min Rain = 0
KTH1 131932Z 03007KT 16/M02 A3031 RMK A01 T01631019  RH  029%=      5-min Rain = 0
KTH1 131933Z 03010KT 17/M02 A3031 RMK A01 T01661020  RH  028%=      5-min Rain = 0
KTH1 131934Z 04012KT 17/M02 A3031 RMK A01 T01651024  RH  027%=      5-min Rain = 0
KTH1 131935Z 04010KT 16/M02 A3031 RMK A01 T01621024  RH  028%=      5-min Rain = 0
KTH1 131936Z 04007KT 16/M02 A3031 RMK A01 T01621024  RH  028%=      5-min Rain = 0
KTH1 131937Z 04008KT 16/M03 A3031 RMK A01 T01601025  RH  028%=      5-min Rain = 0
KTH1 131938Z 05006KT 16/M02 A3031 RMK A01 T01591020  RH  029%=      5-min Rain = 0
KTH1 131939Z 04003KT 16/M02 A3031 RMK A01 T01611020  RH  029%=      5-min Rain = 0
KTH1 131940Z 04008KT 16/M02 A3031 RMK A01 T01621018  RH  029%=      5-min Rain = 0
KTH1 131941Z 04006KT 16/M02 A3031 RMK A01 T01621022  RH  028%=      5-min Rain = 0
KTH1 131942Z 04009KT 16/M02 A3031 RMK A01 T01611021  RH  029%=      5-min Rain = 0
KTH1 131943Z 05010KT 17/M01 A3031 RMK A01 T01651013  RH  030%=      5-min Rain = 0
KTH1 131944Z 05006KT 17/M02 A3031 RMK A01 T01681015  RH  029%=      5-min Rain = 0
KTH1 131945Z 06008KT 17/M02 A3031 RMK A01 T01681017  RH  028%=      5-min Rain = 0
KTH1 131946Z 02012KT 17/M02 A3031 RMK A01 T01661024  RH  027%=      5-min Rain = 0
KTH1 131947Z 02012KT 16/M03 A3031 RMK A01 T01611029  RH  027%=      5-min Rain = 0
KTH1 131948Z 01006KT 16/M03 A3031 RMK A01 T01581031  RH  027%=      5-min Rain = 0
KTH1 131949Z 04006KT 16/M03 A3031 RMK A01 T01561029  RH  028%=      5-min Rain = 0
KTH1 131950Z 06009KT 16/M02 A3031 RMK A01 T01571023  RH  029%=      5-min Rain = 0
KTH1 131951Z 06007KT 16/M02 A3031 RMK A01 T01611018  RH  029%=      5-min Rain = 0
KTH1 131952Z 04009KT 17/M02 A3031 RMK A01 T01661016  RH  029%=      5-min Rain = 0
KTH1 131953Z 04008KT 17/M02 A3031 RMK A01 T01681024  RH  027%=      5-min Rain = 0
KTH1 131954Z 04009G14KT 16/M03 A3031 RMK A01 T01641027  RH  027%=      5-min Rain = 0
KTH1 131955Z 03011KT 16/M03 A3031 RMK A01 T01621029  RH  027%=      5-min Rain = 0
KTH1 131956Z 04011KT 16/M03 A3031 RMK A01 T01591031  RH  027%=      5-min Rain = 0
KTH1 131957Z 05007KT 16/M03 A3031 RMK A01 T01571029  RH  028%=      5-min Rain = 0
KTH1 131958Z 06008KT 16/M03 A3031 RMK A01 T01591025  RH  028%=      5-min Rain = 0
KTH1 131959Z 05008KT 16/M03 A3031 RMK A01 T01601028  RH  027%=      5-min Rain = 0
KTH1 132000Z 06005KT 16/M02 A303 RMK A01 T01621020  RH  029%=      5-min Rain = 0
KTH1 132001Z 04009G15KT 17/M02 A303 RMK A01 T01651024  RH  027%=      5-min Rain = 0
KTH1 132002Z 05010KT 17/M02 A303 RMK A01 T01651024  RH  027%=      5-min Rain = 0
KTH1 132003Z 05008G13KT 16/M03 A303 RMK A01 T01641026  RH  027%=      5-min Rain = 0
KTH1 132004Z 03010KT 16/M03 A303 RMK A01 T01631027  RH  027%=      5-min Rain = 0
KTH1 132005Z 03007KT 16/M03 A303 RMK A01 T01621028  RH  027%=      5-min Rain = 0
KTH1 132006Z 02006KT 16/M03 A303 RMK A01 T01601032  RH  027%=      5-min Rain = 0
KTH1 132007Z 05006KT 16/M03 A303 RMK A01 T01581029  RH  028%=      5-min Rain = 0
KTH1 132008Z 06008KT 16/M03 A303 RMK A01 T01591026  RH  028%=      5-min Rain = 0
KTH1 132009Z 07006KT 16/M03 A303 RMK A01 T01581028  RH  028%=      5-min Rain = 0
KTH1 132010Z 07006KT 16/M03 A303 RMK A01 T01571027  RH  028%=      5-min Rain = 0
KTH1 132011Z 06009KT 16/M02 A303 RMK A01 T01591019  RH  029%=      5-min Rain = 0
KTH1 132012Z 06012KT 16/M02 A303 RMK A01 T01641021  RH  028%=      5-min Rain = 0
KTH1 132013Z 05008KT 17/M03 A303 RMK A01 T01651025  RH  027%=      5-min Rain = 0
KTH1 132014Z 04009KT 17/M02 A303 RMK A01 T01661018  RH  028%=      5-min Rain = 0
KTH1 132015Z 01009KT 17/M02 A303 RMK A01 T01701019  RH  027%=      5-min Rain = 0
KTH1 132016Z 36009KT 17/M03 A303 RMK A01 T01711026  RH  026%=      5-min Rain = 0
KTH1 132017Z 04006KT 17/M03 A303 RMK A01 T01681028  RH  026%=      5-min Rain = 0
KTH1 132018Z 04007KT 17/M03 A303 RMK A01 T01661025  RH  027%=      5-min Rain = 0
KTH1 132019Z 04009KT 17/M03 A303 RMK A01 T01651027  RH  027%=      5-min Rain = 0
KTH1 132020Z 04011KT 16/M03 A303 RMK A01 T01621028  RH  027%=      5-min Rain = 0
KTH1 132021Z 05010KT 16/M03 A303 RMK A01 T01621025  RH  028%=      5-min Rain = 0
KTH1 132022Z 04011KT 16/M03 A303 RMK A01 T01631027  RH  027%=      5-min Rain = 0
KTH1 132023Z 06011KT 16/M02 A303 RMK A01 T01631023  RH  028%=      5-min Rain = 0
KTH1 132024Z 04010KT 16/M02 A303 RMK A01 T01641022  RH  028%=      5-min Rain = 0
KTH1 132025Z 04008KT 17/M03 A303 RMK A01 T01651027  RH  027%=      5-min Rain = 0
KTH1 132026Z 04010KT 17/M03 A303 RMK A01 T01651025  RH  027%=      5-min Rain = 0
KTH1 132027Z 04010KT 16/M03 A303 RMK A01 T01631028  RH  027%=      5-min Rain = 0
KTH1 132028Z 05008KT 16/M02 A303 RMK A01 T01621024  RH  028%=      5-min Rain = 0
KTH1 132029Z 06010KT 17/M02 A303 RMK A01 T01661017  RH  029%=      5-min Rain = 0
KTH1 132030Z 05008KT 17/M02 A303 RMK A01 T01681021  RH  027%=      5-min Rain = 0
KTH1 132031Z 06006G11KT 17/M02 A303 RMK A01 T01681020  RH  028%=      5-min Rain = 0
KTH1 132032Z 06011KT 17/M02 A3029 RMK A01 T01701020  RH  027%=      5-min Rain = 0
KTH1 132033Z 07008KT 17/M02 A3029 RMK A01 T01691021  RH  027%=      5-min Rain = 0
KTH1 132034Z 06006KT 17/M02 A3029 RMK A01 T01691017  RH  028%=      5-min Rain = 0
KTH1 132035Z 05008KT 17/M02 A3029 RMK A01 T01711020  RH  027%=      5-min Rain = 0
KTH1 132036Z 02010KT 17/M03 A3029 RMK A01 T01691025  RH  026%=      5-min Rain = 0
KTH1 132037Z 03009KT 17/M03 A3029 RMK A01 T01671026  RH  027%=      5-min Rain = 0
KTH1 132038Z 04010KT 17/M03 A3029 RMK A01 T01671025  RH  027%=      5-min Rain = 0
KTH1 132039Z 05008KT 17/M02 A3029 RMK A01 T01661022  RH  028%=      5-min Rain = 0
KTH1 132040Z 02009KT 17/M02 A3029 RMK A01 T01671023  RH  027%=      5-min Rain = 0
KTH1 132041Z 01009KT 17/M03 A3029 RMK A01 T01671026  RH  027%=      5-min Rain = 0
KTH1 132042Z 01008KT 17/M02 A3029 RMK A01 T01691023  RH  027%=      5-min Rain = 0
KTH1 132043Z 01007KT 17/M02 A3029 RMK A01 T01691024  RH  027%=      5-min Rain = 0
KTH1 132044Z 01005KT 17/M02 A3029 RMK A01 T01691023  RH  027%=      5-min Rain = 0
KTH1 132045Z 01006KT 17/M02 A3029 RMK A01 T01701024  RH  026%=      5-min Rain = 0
KTH1 132046Z 03009G14KT 17/M02 A3029 RMK A01 T01701020  RH  027%=      5-min Rain = 0
KTH1 132047Z 03011KT 17/M02 A3029 RMK A01 T01721021  RH  027%=      5-min Rain = 0
KTH1 132048Z 03006G11KT 17/M03 A3029 RMK A01 T01691025  RH  026%=      5-min Rain = 0
KTH1 132049Z 03005KT 17/M02 A3029 RMK A01 T01681023  RH  027%=      5-min Rain = 0
KTH1 132050Z 04006KT 17/M02 A3029 RMK A01 T01681023  RH  027%=      5-min Rain = 0
KTH1 132051Z 03007KT 17/M02 A3029 RMK A01 T01691020  RH  027%=      5-min Rain = 0
KTH1 132052Z 00007G13KT 17/M02 A3029 RMK A01 T01711019  RH  027%=      5-min Rain = 0
KTH1 132053Z 01005KT 17/M02 A3029 RMK A01 T01721024  RH  026%=      5-min Rain = 0
KTH1 132054Z 03009KT 17/M02 A3029 RMK A01 T01711024  RH  026%=      5-min Rain = 0
KTH1 132055Z 05010KT 17/M02 A3029 RMK A01 T01701021  RH  027%=      5-min Rain = 0
KTH1 132056Z 05011KT 17/M02 A3029 RMK A01 T01721019  RH  027%=      5-min Rain = 0
KTH1 132057Z 06010KT 17/M02 A3029 RMK A01 T01701019  RH  027%=      5-min Rain = 0
KTH1 132058Z 05011KT 17/M02 A3029 RMK A01 T01701020  RH  027%=      5-min Rain = 0
KTH1 132059Z 03011KT 17/M02 A3029 RMK A01 T01711020  RH  027%=      5-min Rain = 0
KTH1 132100Z 02007G12KT 17/M03 A3029 RMK A01 T01701027  RH  026%=      5-min Rain = 0
KTH1 132101Z 03009KT 17/M03 A3029 RMK A01 T01671029  RH  026%=      5-min Rain = 0
KTH1 132102Z 05006KT 17/M03 A3029 RMK A01 T01661027  RH  027%=      5-min Rain = 0
KTH1 132103Z 05007G12KT 16/M03 A3028 RMK A01 T01631027  RH  027%=      5-min Rain = 0
KTH1 132104Z 04009G15KT 17/M02 A3028 RMK A01 T01651019  RH  028%=      5-min Rain = 0
KTH1 132105Z 04009KT 17/M02 A3028 RMK A01 T01691021  RH  027%=      5-min Rain = 0
KTH1 132106Z 05008KT 17/M02 A3028 RMK A01 T01701024  RH  027%=      5-min Rain = 0
KTH1 132107Z 03006KT 17/M02 A3028 RMK A01 T01691023  RH  027%=      5-min Rain = 0
KTH1 132108Z 02006G12KT 17/M02 A3028 RMK A01 T01711021  RH  027%=      5-min Rain = 0
KTH1 132109Z 04011KT 17/M02 A3029 RMK A01 T01731023  RH  026%=      5-min Rain = 0
KTH1 132110Z 04009KT 17/M02 A3029 RMK A01 T01721023  RH  026%=      5-min Rain = 0
KTH1 132111Z 05011KT 17/M03 A3029 RMK A01 T01711025  RH  026%=      5-min Rain = 0
KTH1 132112Z 04006KT 17/M03 A3029 RMK A01 T01691025  RH  026%=      5-min Rain = 0
KTH1 132113Z 01006KT 17/M02 A3028 RMK A01 T01681020  RH  028%=      5-min Rain = 0
KTH1 132114Z 02006KT 17/M02 A3028 RMK A01 T01701023  RH  027%=      5-min Rain = 0
KTH1 132115Z 05007G12KT 17/M02 A3028 RMK A01 T01711023  RH  027%=      5-min Rain = 0
KTH1 132116Z 06007KT 17/M02 A3028 RMK A01 T01711020  RH  027%=      5-min Rain = 0
KTH1 132117Z 05012KT 17/M02 A3028 RMK A01 T01711019  RH  027%=      5-min Rain = 0
KTH1 132118Z 04012KT 17/M02 A3028 RMK A01 T01701023  RH  027%=      5-min Rain = 0
KTH1 132119Z 02010KT 17/M03 A3028 RMK A01 T01701025  RH  026%=      5-min Rain = 0
KTH1 132120Z 04011KT 17/M03 A3028 RMK A01 T01681026  RH  026%=      5-min Rain = 0
KTH1 132121Z 03013KT 17/M03 A3028 RMK A01 T01661028  RH  026%=      5-min Rain = 0
KTH1 132122Z 04010G15KT 17/M03 A3028 RMK A01 T01651027  RH  027%=      5-min Rain = 0
KTH1 132123Z 04006KT 17/M03 A3028 RMK A01 T01651026  RH  027%=      5-min Rain = 0
KTH1 132124Z 04008KT 17/M03 A3028 RMK A01 T01661026  RH  027%=      5-min Rain = 0
KTH1 132125Z 06006KT 17/M03 A3028 RMK A01 T01661027  RH  027%=      5-min Rain = 0
KTH1 132126Z 03007KT 17/M03 A3028 RMK A01 T01661026  RH  027%=      5-min Rain = 0
KTH1 132127Z 03008KT 17/M03 A3028 RMK A01 T01661028  RH  026%=      5-min Rain = 0
KTH1 132128Z 04009KT 17/M02 A3028 RMK A01 T01661023  RH  027%=      5-min Rain = 0
KTH1 132129Z 03008G13KT 17/M02 A3028 RMK A01 T01681023  RH  027%=      5-min Rain = 0
KTH1 132130Z 03011KT 17/M03 A3028 RMK A01 T01691027  RH  026%=      5-min Rain = 0
KTH1 132131Z 05010KT 17/M03 A3028 RMK A01 T01681026  RH  026%=      5-min Rain = 0
KTH1 132132Z 05008KT 17/M03 A3028 RMK A01 T01671029  RH  026%=      5-min Rain = 0
KTH1 132133Z 05010KT 17/M03 A3028 RMK A01 T01651028  RH  026%=      5-min Rain = 0
KTH1 132134Z 04010KT 17/M03 A3028 RMK A01 T01651025  RH  027%=      5-min Rain = 0
KTH1 132135Z 02010KT 17/M03 A3028 RMK A01 T01661025  RH  027%=      5-min Rain = 0
KTH1 132136Z 02012G17KT 17/M03 A3028 RMK A01 T01671028  RH  026%=      5-min Rain = 0
KTH1 132137Z 03011KT 17/M03 A3028 RMK A01 T01671029  RH  026%=      5-min Rain = 0
KTH1 132138Z 03010KT 16/M03 A3028 RMK A01 T01641031  RH  026%=      5-min Rain = 0
KTH1 132139Z 03012KT 16/M03 A3028 RMK A01 T01611030  RH  027%=      5-min Rain = 0
KTH1 132140Z 05012KT 16/M03 A3028 RMK A01 T01611027  RH  027%=      5-min Rain = 0
KTH1 132141Z 05008KT 16/M03 A3028 RMK A01 T01641025  RH  027%=      5-min Rain = 0
KTH1 132142Z 05008KT 16/M03 A3028 RMK A01 T01641026  RH  027%=      5-min Rain = 0
KTH1 132143Z 03007KT 16/M02 A3028 RMK A01 T01641024  RH  027%=      5-min Rain = 0
KTH1 132144Z 01008KT 17/M02 A3028 RMK A01 T01661024  RH  027%=      5-min Rain = 0
KTH1 132145Z 04009KT 17/M03 A3028 RMK A01 T01681026  RH  026%=      5-min Rain = 0
KTH1 132146Z 03012KT 17/M03 A3028 RMK A01 T01691028  RH  026%=      5-min Rain = 0
KTH1 132147Z 03010KT 17/M03 A3028 RMK A01 T01661030  RH  026%=      5-min Rain = 0
KTH1 132148Z 03008KT 17/M03 A3028 RMK A01 T01651029  RH  026%=      5-min Rain = 0
KTH1 132149Z 02005KT 17/M03 A3028 RMK A01 T01651030  RH  026%=      5-min Rain = 0
KTH1 132150Z 03006KT 16/M03 A3028 RMK A01 T01641030  RH  026%=      5-min Rain = 0
KTH1 132151Z 06013KT 16/M03 A3028 RMK A01 T01641028  RH  027%=      5-min Rain = 0
KTH1 132152Z 05010KT 17/M02 A3028 RMK A01 T01651024  RH  027%=      5-min Rain = 0
KTH1 132153Z 04013KT 17/M03 A3028 RMK A01 T01661027  RH  026%=      5-min Rain = 0
KTH1 132154Z 04010KT 17/M03 A3028 RMK A01 T01661027  RH  027%=      5-min Rain = 0
KTH1 132155Z 04007KT 17/M03 A3028 RMK A01 T01661026  RH  027%=      5-min Rain = 0
KTH1 132156Z 04006KT 17/M03 A3028 RMK A01 T01681027  RH  026%=      5-min Rain = 0
KTH1 132157Z 02006KT 17/M02 A3028 RMK A01 T01691024  RH  027%=      5-min Rain = 0
KTH1 132158Z 01009KT 17/M02 A3028 RMK A01 T01721024  RH  026%=      5-min Rain = 0
KTH1 132159Z 01009KT 17/M03 A3028 RMK A01 T01721029  RH  025%=      5-min Rain = 0
KTH1 132200Z 00009KT 17/M03 A3028 RMK A01 T01691030  RH  025%=      5-min Rain = 0
KTH1 132201Z 00008KT 17/M03 A3028 RMK A01 T01671031  RH  026%=      5-min Rain = 0
KTH1 132202Z 00005KT 17/M03 A3028 RMK A01 T01661029  RH  026%=      5-min Rain = 0
KTH1 132203Z 04005KT 17/M03 A3028 RMK A01 T01661026  RH  027%=      5-min Rain = 0
KTH1 132204Z 06006KT 17/M03 A3028 RMK A01 T01681025  RH  027%=      5-min Rain = 0
KTH1 132205Z 08008KT 17/M03 A3028 RMK A01 T01681025  RH  027%=      5-min Rain = 0
KTH1 132206Z 07010KT 17/M02 A3028 RMK A01 T01691024  RH  027%=      5-min Rain = 0
KTH1 132207Z 05009KT 17/M02 A3028 RMK A01 T01691023  RH  027%=      5-min Rain = 0
KTH1 132208Z 04010KT 17/M02 A3028 RMK A01 T01701023  RH  027%=      5-min Rain = 0
KTH1 132209Z 03008KT 17/M03 A3028 RMK A01 T01681029  RH  026%=      5-min Rain = 0
KTH1 132210Z 03007KT 17/M03 A3028 RMK A01 T01671030  RH  026%=      5-min Rain = 0
KTH1 132211Z 01006KT 17/M03 A3028 RMK A01 T01661030  RH  026%=      5-min Rain = 0
KTH1 132212Z 36008KT 17/M03 A3028 RMK A01 T01671030  RH  026%=      5-min Rain = 0
KTH1 132213Z 05006KT 17/M03 A3028 RMK A01 T01681028  RH  026%=      5-min Rain = 0
KTH1 132214Z 05009G14KT 17/M02 A3028 RMK A01 T01701024  RH  026%=      5-min Rain = 0
KTH1 132215Z 04009KT 17/M03 A3028 RMK A01 T01711027  RH  026%=      5-min Rain = 0
KTH1 132216Z 05010KT 17/M03 A3028 RMK A01 T01701028  RH  026%=      5-min Rain = 0
KTH1 132217Z 05012KT 17/M03 A3028 RMK A01 T01691030  RH  025%=      5-min Rain = 0
KTH1 132218Z 04009KT 17/M03 A3028 RMK A01 T01661033  RH  025%=      5-min Rain = 0
KTH1 132219Z 03008KT 17/M03 A3028 RMK A01 T01651033  RH  026%=      5-min Rain = 0
KTH1 132220Z 03008KT 16/M03 A3028 RMK A01 T01641033  RH  026%=      5-min Rain = 0
KTH1 132221Z 03007KT 16/M03 A3028 RMK A01 T01641033  RH  026%=      5-min Rain = 0
KTH1 132222Z 03005G10KT 17/M03 A3028 RMK A01 T01651030  RH  026%=      5-min Rain = 0
KTH1 132223Z 02010KT 17/M03 A3027 RMK A01 T01661031  RH  026%=      5-min Rain = 0
KTH1 132224Z 02009KT 17/M03 A3027 RMK A01 T01661032  RH  026%=      5-min Rain = 0
KTH1 132225Z 05009KT 17/M03 A3028 RMK A01 T01661029  RH  026%=      5-min Rain = 0
KTH1 132226Z 04011KT 17/M03 A3028 RMK A01 T01681026  RH  026%=      5-min Rain = 0
KTH1 132227Z 03010KT 17/M03 A3028 RMK A01 T01681033  RH  025%=      5-min Rain = 0
KTH1 132228Z 03010KT 17/M03 A3028 RMK A01 T01651034  RH  025%=      5-min Rain = 0
KTH1 132229Z 04007KT 16/M03 A3028 RMK A01 T01631033  RH  026%=      5-min Rain = 0
KTH1 132230Z 03007KT 16/M03 A3028 RMK A01 T01631034  RH  026%=      5-min Rain = 0
KTH1 132231Z 04004KT 16/M03 A3028 RMK A01 T01621034  RH  026%=      5-min Rain = 0
KTH1 132232Z 04010KT 16/M03 A3028 RMK A01 T01631030  RH  026%=      5-min Rain = 0
KTH1 132233Z 05010KT 16/M03 A3028 RMK A01 T01641032  RH  026%=      5-min Rain = 0
KTH1 132234Z 04009KT 17/M03 A3028 RMK A01 T01651030  RH  026%=      5-min Rain = 0
KTH1 132235Z 05008KT 17/M03 A3028 RMK A01 T01651031  RH  026%=      5-min Rain = 0
KTH1 132236Z 03012KT 17/M03 A3028 RMK A01 T01651033  RH  026%=      5-min Rain = 0
KTH1 132237Z 04011KT 16/M04 A3028 RMK A01 T01641036  RH  025%=      5-min Rain = 0
KTH1 132238Z 03010KT 16/M03 A3028 RMK A01 T01631034  RH  026%=      5-min Rain = 0
KTH1 132239Z 03009KT 16/M03 A3028 RMK A01 T01631034  RH  026%=      5-min Rain = 0
KTH1 132240Z 03010KT 16/M03 A3028 RMK A01 T01631032  RH  026%=      5-min Rain = 0
KTH1 132241Z 03007KT 16/M03 A3028 RMK A01 T01621034  RH  026%=      5-min Rain = 0
KTH1 132242Z 02006KT 16/M03 A3028 RMK A01 T01621032  RH  026%=      5-min Rain = 0
KTH1 132243Z 02009KT 16/M03 A3028 RMK A01 T01641032  RH  026%=      5-min Rain = 0
KTH1 132244Z 05007KT 16/M04 A3028 RMK A01 T01631035  RH  026%=      5-min Rain = 0
KTH1 132245Z 06007KT 16/M03 A3028 RMK A01 T01631031  RH  026%=      5-min Rain = 0
KTH1 132246Z 05006KT 16/M03 A3028 RMK A01 T01631030  RH  027%=      5-min Rain = 0
KTH1 132247Z 04006KT 16/M03 A3028 RMK A01 T01641025  RH  027%=      5-min Rain = 0
KTH1 132248Z 03010KT 17/M03 A3028 RMK A01 T01671031  RH  026%=      5-min Rain = 0
KTH1 132249Z 03009KT 17/M04 A3028 RMK A01 T01651035  RH  025%=      5-min Rain = 0
KTH1 132250Z 05010KT 16/M03 A3028 RMK A01 T01641033  RH  026%=      5-min Rain = 0
KTH1 132251Z 05011KT 16/M03 A3028 RMK A01 T01641032  RH  026%=      5-min Rain = 0
KTH1 132252Z 05008KT 16/M03 A3028 RMK A01 T01631031  RH  026%=      5-min Rain = 0
KTH1 132253Z 06011KT 16/M03 A3028 RMK A01 T01631031  RH  026%=      5-min Rain = 0
KTH1 132254Z 05008KT 16/M03 A3028 RMK A01 T01631031  RH  026%=      5-min Rain = 0
KTH1 132255Z 03007KT 16/M03 A3028 RMK A01 T01631031  RH  026%=      5-min Rain = 0
KTH1 132256Z 02007KT 16/M03 A3028 RMK A01 T01631032  RH  026%=      5-min Rain = 0
KTH1 132257Z 05008KT 16/M03 A3028 RMK A01 T01641033  RH  026%=      5-min Rain = 0
KTH1 132258Z 05007G12KT 16/M03 A3028 RMK A01 T01641031  RH  026%=      5-min Rain = 0
KTH1 132259Z 06009KT 17/M03 A3028 RMK A01 T01651031  RH  026%=      5-min Rain = 0
KTH1 132300Z 06010KT 16/M03 A3028 RMK A01 T01641033  RH  026%=      5-min Rain = 0
KTH1 132301Z 06010KT 16/M03 A3028 RMK A01 T01631033  RH  026%=      5-min Rain = 0
KTH1 132302Z 07008KT 16/M03 A3028 RMK A01 T01621034  RH  026%=      5-min Rain = 0
KTH1 132303Z 07010G15KT 16/M03 A3028 RMK A01 T01611031  RH  026%=      5-min Rain = 0
KTH1 132304Z 06013KT 16/M03 A3028 RMK A01 T01621032  RH  026%=      5-min Rain = 0
KTH1 132305Z 06011KT 16/M03 A3028 RMK A01 T01611033  RH  026%=      5-min Rain = 0
KTH1 132306Z 06010KT 16/M03 A3028 RMK A01 T01611031  RH  027%=      5-min Rain = 0
KTH1 132307Z 03011KT 16/M03 A3028 RMK A01 T01611031  RH  027%=      5-min Rain = 0
KTH1 132308Z 05007KT 16/M03 A3028 RMK A01 T01611034  RH  026%=      5-min Rain = 0
KTH1 132309Z 05010KT 16/M03 A3028 RMK A01 T01611030  RH  027%=      5-min Rain = 0
KTH1 132310Z 05012KT 16/M03 A3028 RMK A01 T01621033  RH  026%=      5-min Rain = 0
KTH1 132311Z 04009KT 16/M03 A3028 RMK A01 T01611033  RH  026%=      5-min Rain = 0
KTH1 132312Z 05009KT 16/M03 A3028 RMK A01 T01601034  RH  026%=      5-min Rain = 0
KTH1 132313Z 05007KT 16/M03 A3028 RMK A01 T01611034  RH  026%=      5-min Rain = 0
KTH1 132314Z 05006KT 16/M03 A3028 RMK A01 T01601032  RH  027%=      5-min Rain = 0
KTH1 132315Z 05008KT 16/M03 A3028 RMK A01 T01621031  RH  026%=      5-min Rain = 0
KTH1 132316Z 04009KT 16/M03 A3028 RMK A01 T01621034  RH  026%=      5-min Rain = 0
KTH1 132317Z 05009KT 16/M04 A3028 RMK A01 T01611035  RH  026%=      5-min Rain = 0
KTH1 132318Z 05009KT 16/M04 A3028 RMK A01 T01601036  RH  026%=      5-min Rain = 0
KTH1 132319Z 05009KT 16/M04 A3028 RMK A01 T01601035  RH  026%=      5-min Rain = 0
KTH1 132320Z 04008KT 16/M04 A3028 RMK A01 T01601037  RH  026%=      5-min Rain = 0
KTH1 132321Z 04010KT 16/M04 A3028 RMK A01 T01591037  RH  026%=      5-min Rain = 0
KTH1 132322Z 07008KT 16/M04 A3028 RMK A01 T01591037  RH  026%=      5-min Rain = 0
KTH1 132323Z 06008KT 16/M03 A3028 RMK A01 T01591034  RH  026%=      5-min Rain = 0
KTH1 132324Z 07008KT 16/M04 A3028 RMK A01 T01591036  RH  026%=      5-min Rain = 0
KTH1 132325Z 06006KT 16/M04 A3028 RMK A01 T01591036  RH  026%=      5-min Rain = 0
KTH1 132326Z 05008KT 16/M04 A3028 RMK A01 T01581037  RH  026%=      5-min Rain = 0
KTH1 132327Z 07008G13KT 16/M04 A3028 RMK A01 T01591036  RH  026%=      5-min Rain = 0
KTH1 132328Z 08011KT 16/M04 A3028 RMK A01 T01581037  RH  026%=      5-min Rain = 0
KTH1 132329Z 07008KT 16/M04 A3028 RMK A01 T01571038  RH  026%=      5-min Rain = 0
KTH1 132330Z 05010KT 16/M04 A3028 RMK A01 T01571036  RH  026%=      5-min Rain = 0
KTH1 132331Z 06012KT 16/M04 A3028 RMK A01 T01581037  RH  026%=      5-min Rain = 0
KTH1 132332Z 05008KT 16/M04 A3028 RMK A01 T01581039  RH  026%=      5-min Rain = 0
KTH1 132333Z 03007KT 16/M04 A3028 RMK A01 T01581040  RH  025%=      5-min Rain = 0
KTH1 132334Z 03007KT 16/M04 A3028 RMK A01 T01581039  RH  026%=      5-min Rain = 0
KTH1 132335Z 04010KT 16/M04 A3028 RMK A01 T01581039  RH  025%=      5-min Rain = 0
KTH1 132336Z 04009KT 16/M04 A3028 RMK A01 T01581039  RH  025%=      5-min Rain = 0
KTH1 132337Z 04010KT 16/M04 A3028 RMK A01 T01581041  RH  025%=      5-min Rain = 0
KTH1 132338Z 05011KT 16/M04 A3028 RMK A01 T01571042  RH  025%=      5-min Rain = 0
KTH1 132339Z 05011KT 16/M04 A3028 RMK A01 T01561042  RH  025%=      5-min Rain = 0
KTH1 132340Z 04008KT 16/M04 A3028 RMK A01 T01551042  RH  025%=      5-min Rain = 0
KTH1 132341Z 05010KT 16/M04 A3028 RMK A01 T01551041  RH  026%=      5-min Rain = 0
KTH1 132342Z 04011KT 16/M04 A3028 RMK A01 T01551043  RH  025%=      5-min Rain = 0
KTH1 132343Z 04008KT 15/M04 A3028 RMK A01 T01541044  RH  025%=      5-min Rain = 0
KTH1 132344Z 04008KT 15/M04 A3028 RMK A01 T01541043  RH  025%=      5-min Rain = 0
KTH1 132345Z 04007KT 15/M04 A3028 RMK A01 T01541042  RH  026%=      5-min Rain = 0
KTH1 132346Z 05008KT 16/M04 A3028 RMK A01 T01551042  RH  026%=      5-min Rain = 0
KTH1 132347Z 04009KT 16/M04 A3028 RMK A01 T01551042  RH  025%=      5-min Rain = 0
KTH1 132348Z 04007KT 15/M04 A3028 RMK A01 T01541043  RH  025%=      5-min Rain = 0
KTH1 132349Z 04007KT 15/M04 A3028 RMK A01 T01541041  RH  026%=      5-min Rain = 0
KTH1 132350Z 05007KT 15/M04 A3028 RMK A01 T01541039  RH  026%=      5-min Rain = 0
KTH1 132351Z 05007KT 15/M04 A3028 RMK A01 T01541040  RH  026%=      5-min Rain = 0
KTH1 132352Z 04007KT 15/M04 A3028 RMK A01 T01541040  RH  026%=      5-min Rain = 0
KTH1 132353Z 04007KT 15/M04 A3028 RMK A01 T01541041  RH  026%=      5-min Rain = 0
KTH1 132354Z 04006KT 15/M04 A3028 RMK A01 T01541042  RH  026%=      5-min Rain = 0
KTH1 132355Z 04008KT 15/M04 A3028 RMK A01 T01541043  RH  026%=      5-min Rain = 0
KTH1 132356Z 04009KT 15/M04 A3028 RMK A01 T01531044  RH  026%=      5-min Rain = 0
KTH1 132357Z 05007KT 15/M04 A3028 RMK A01 T01521044  RH  025%=      5-min Rain = 0
KTH1 132358Z 05008KT 15/M04 A3028 RMK A01 T01521043  RH  026%=      5-min Rain = 0
KTH1 132359Z 06007KT 15/M04 A3028 RMK A01 T01521042  RH  026%=      5-min Rain = 0
KTH1 140000Z 05008KT 15/M04 A3028 RMK A01 T01511042  RH  026%=      5-min Rain = 0
KTH1 140001Z 05006KT 15/M04 A3028 RMK A01 T01511044  RH  026%=      5-min Rain = 0
KTH1 140002Z 04007KT 15/M04 A3028 RMK A01 T01501044  RH  026%=      5-min Rain = 0
KTH1 140003Z 05007KT 15/M05 A3028 RMK A01 T01501047  RH  025%=      5-min Rain = 0
KTH1 140004Z 05006KT 15/M05 A3028 RMK A01 T01501046  RH  026%=      5-min Rain = 0
KTH1 140005Z 05007KT 15/M04 A3028 RMK A01 T01501043  RH  026%=      5-min Rain = 0
KTH1 140006Z 06009KT 15/M04 A3028 RMK A01 T01501044  RH  026%=      5-min Rain = 0
KTH1 140007Z 05008KT 15/M05 A3028 RMK A01 T01491046  RH  026%=      5-min Rain = 0
KTH1 140008Z 06007KT 15/M05 A3027 RMK A01 T01481045  RH  026%=      5-min Rain = 0
KTH1 140009Z 06007KT 15/M05 A3028 RMK A01 T01471046  RH  026%=      5-min Rain = 0
KTH1 140010Z 05008KT 15/M05 A3028 RMK A01 T01471045  RH  026%=      5-min Rain = 0
KTH1 140011Z 06009KT 15/M05 A3028 RMK A01 T01461047  RH  026%=      5-min Rain = 0
KTH1 140012Z 05007KT 15/M05 A3028 RMK A01 T01461048  RH  026%=      5-min Rain = 0
KTH1 140013Z 05006KT 15/M05 A3028 RMK A01 T01451045  RH  026%=      5-min Rain = 0
KTH1 140014Z 04008KT 15/M05 A3028 RMK A01 T01451045  RH  027%=      5-min Rain = 0
KTH1 140015Z 05008KT 15/M05 A3028 RMK A01 T01451046  RH  026%=      5-min Rain = 0
KTH1 140016Z 04006KT 15/M05 A3028 RMK A01 T01451046  RH  026%=      5-min Rain = 0
KTH1 140017Z 04007KT 14/M05 A3028 RMK A01 T01441045  RH  027%=      5-min Rain = 0
KTH1 140018Z 04009KT 14/M05 A3028 RMK A01 T01441046  RH  026%=      5-min Rain = 0
KTH1 140019Z 05008KT 14/M05 A3028 RMK A01 T01441047  RH  026%=      5-min Rain = 0
KTH1 140020Z 04006KT 14/M05 A3028 RMK A01 T01441045  RH  027%=      5-min Rain = 0
KTH1 140021Z 04007KT 14/M05 A3028 RMK A01 T01431045  RH  027%=      5-min Rain = 0
KTH1 140022Z 04006KT 14/M05 A3028 RMK A01 T01431046  RH  027%=      5-min Rain = 0
KTH1 140023Z 05006KT 14/M05 A3028 RMK A01 T01431046  RH  027%=      5-min Rain = 0
KTH1 140024Z 05006KT 14/M05 A3028 RMK A01 T01421045  RH  027%=      5-min Rain = 0
KTH1 140025Z 05007KT 14/M05 A3028 RMK A01 T01421046  RH  027%=      5-min Rain = 0
KTH1 140026Z 05006KT 14/M05 A3028 RMK A01 T01411048  RH  027%=      5-min Rain = 0
KTH1 140027Z 05007KT 14/M05 A3028 RMK A01 T01411047  RH  027%=      5-min Rain = 0
KTH1 140028Z 05005KT 14/M05 A3028 RMK A01 T01401047  RH  027%=      5-min Rain = 0
KTH1 140029Z 05007KT 14/M05 A3028 RMK A01 T01391047  RH  027%=      5-min Rain = 0
KTH1 140030Z 05006KT 14/M05 A3028 RMK A01 T01391048  RH  027%=      5-min Rain = 0
KTH1 140031Z 05006KT 14/M05 A3028 RMK A01 T01381048  RH  027%=      5-min Rain = 0
KTH1 140032Z 04007KT 14/M05 A3028 RMK A01 T01381048  RH  027%=      5-min Rain = 0
KTH1 140033Z 05006KT 14/M05 A3028 RMK A01 T01371048  RH  027%=      5-min Rain = 0
KTH1 140034Z 04006KT 14/M05 A3028 RMK A01 T01361049  RH  027%=      5-min Rain = 0
KTH1 140035Z 04005KT 14/M05 A3028 RMK A01 T01361049  RH  027%=      5-min Rain = 0
KTH1 140036Z 04007KT 14/M05 A3028 RMK A01 T01361050  RH  027%=      5-min Rain = 0
KTH1 140037Z 04007KT 14/M05 A3028 RMK A01 T01351051  RH  027%=      5-min Rain = 0
KTH1 140038Z 04006KT 13/M05 A3028 RMK A01 T01341050  RH  027%=      5-min Rain = 0
KTH1 140039Z 04007KT 13/M05 A3028 RMK A01 T01341050  RH  028%=      5-min Rain = 0
KTH1 140040Z 04006KT 13/M05 A3028 RMK A01 T01331051  RH  027%=      5-min Rain = 0
KTH1 140041Z 04007KT 13/M05 A3028 RMK A01 T01331050  RH  028%=      5-min Rain = 0
KTH1 140042Z 04006KT 13/M05 A3028 RMK A01 T01321052  RH  027%=      5-min Rain = 0
KTH1 140043Z 05006KT 13/M05 A3028 RMK A01 T01321051  RH  028%=      5-min Rain = 0
KTH1 140044Z 04007KT 13/M05 A3028 RMK A01 T01311051  RH  028%=      5-min Rain = 0
KTH1 140045Z 05006KT 13/M05 A3028 RMK A01 T01311051  RH  028%=      5-min Rain = 0
KTH1 140046Z 05007KT 13/M05 A3028 RMK A01 T01301052  RH  028%=      5-min Rain = 0
KTH1 140047Z 05007KT 13/M05 A3028 RMK A01 T01301052  RH  028%=      5-min Rain = 0
KTH1 140048Z 05007KT 13/M05 A3028 RMK A01 T01301052  RH  028%=      5-min Rain = 0
KTH1 140049Z 04007KT 13/M05 A3028 RMK A01 T01291051  RH  028%=      5-min Rain = 0
KTH1 140050Z 04006KT 13/M05 A3028 RMK A01 T01291052  RH  028%=      5-min Rain = 0
KTH1 140051Z 04006KT 13/M05 A3028 RMK A01 T01281052  RH  028%=      5-min Rain = 0
KTH1 140052Z 04006KT 13/M05 A3028 RMK A01 T01281051  RH  028%=      5-min Rain = 0
KTH1 140053Z 05007KT 13/M05 A3028 RMK A01 T01271051  RH  029%=      5-min Rain = 0
KTH1 140054Z 04006KT 13/M05 A3028 RMK A01 T01261052  RH  028%=      5-min Rain = 0
KTH1 140055Z 05006KT 13/M05 A3028 RMK A01 T01261051  RH  029%=      5-min Rain = 0
KTH1 140056Z 04007KT 13/M05 A3028 RMK A01 T01251051  RH  029%=      5-min Rain = 0
KTH1 140057Z 04007KT 13/M05 A3028 RMK A01 T01251052  RH  029%=      5-min Rain = 0
KTH1 140058Z 05007KT 13/M05 A3028 RMK A01 T01251051  RH  029%=      5-min Rain = 0
KTH1 140059Z 04006KT 13/M05 A3028 RMK A01 T01251051  RH  029%=      5-min Rain = 0
KTH1 140100Z 04007KT 12/M05 A3028 RMK A01 T01241051  RH  029%=      5-min Rain = 0
KTH1 140101Z 04006KT 12/M05 A3028 RMK A01 T01241051  RH  029%=      5-min Rain = 0
KTH1 140102Z 04007KT 12/M05 A3028 RMK A01 T01241051  RH  029%=      5-min Rain = 0
KTH1 140103Z 04006KT 12/M05 A3028 RMK A01 T01231051  RH  029%=      5-min Rain = 0
KTH1 140104Z 04007KT 12/M05 A3028 RMK A01 T01221051  RH  029%=      5-min Rain = 0
KTH1 140105Z 04006KT 12/M05 A3028 RMK A01 T01231051  RH  029%=      5-min Rain = 0
KTH1 140106Z 04007KT 12/M05 A3028 RMK A01 T01221050  RH  030%=      5-min Rain = 0
KTH1 140107Z 05007KT 12/M05 A3028 RMK A01 T01221050  RH  030%=      5-min Rain = 0
KTH1 140108Z 04006KT 12/M05 A3028 RMK A01 T01211050  RH  030%=      5-min Rain = 0
KTH1 140109Z 04006KT 12/M05 A3028 RMK A01 T01201050  RH  030%=      5-min Rain = 0
KTH1 140110Z 04005KT 12/M05 A3028 RMK A01 T01191049  RH  030%=      5-min Rain = 0
KTH1 140111Z 04006KT 12/M05 A3028 RMK A01 T01181049  RH  031%=      5-min Rain = 0
KTH1 140112Z 05006KT 12/M05 A3028 RMK A01 T01171049  RH  031%=      5-min Rain = 0
KTH1 140113Z 05006KT 12/M05 A3028 RMK A01 T01171049  RH  031%=      5-min Rain = 0
KTH1 140114Z 04006KT 12/M05 A3028 RMK A01 T01161049  RH  031%=      5-min Rain = 0
KTH1 140115Z 05005KT 12/M05 A3028 RMK A01 T01161049  RH  031%=      5-min Rain = 0
KTH1 140116Z 05006KT 12/M05 A3028 RMK A01 T01151048  RH  032%=      5-min Rain = 0
KTH1 140117Z 05006KT 11/M05 A3028 RMK A01 T01141048  RH  032%=      5-min Rain = 0
KTH1 140118Z 04006KT 11/M05 A3028 RMK A01 T01141048  RH  032%=      5-min Rain = 0
KTH1 140119Z 04006KT 11/M05 A3028 RMK A01 T01141048  RH  032%=      5-min Rain = 0
KTH1 140120Z 04006KT 11/M05 A3028 RMK A01 T01141049  RH  032%=      5-min Rain = 0
KTH1 140121Z 04005KT 11/M05 A3028 RMK A01 T01141049  RH  032%=      5-min Rain = 0
KTH1 140122Z 04006KT 11/M05 A3028 RMK A01 T01141049  RH  032%=      5-min Rain = 0
KTH1 140123Z 04005KT 11/M05 A3028 RMK A01 T01141049  RH  032%=      5-min Rain = 0
KTH1 140124Z 04006KT 11/M05 A3028 RMK A01 T01141050  RH  031%=      5-min Rain = 0
KTH1 140125Z 04005KT 11/M05 A3028 RMK A01 T01141049  RH  032%=      5-min Rain = 0
KTH1 140126Z 04005KT 11/M05 A3028 RMK A01 T01141050  RH  031%=      5-min Rain = 0
KTH1 140127Z 05004KT 11/M05 A3028 RMK A01 T01141050  RH  031%=      5-min Rain = 0
KTH1 140128Z 04005KT 11/M05 A3029 RMK A01 T01141049  RH  032%=      5-min Rain = 0
KTH1 140129Z 04004KT 11/M05 A3029 RMK A01 T01131049  RH  032%=      5-min Rain = 0
KTH1 140130Z 04004KT 11/M05 A3029 RMK A01 T01121049  RH  032%=      5-min Rain = 0
KTH1 140131Z 04004KT 11/M05 A3029 RMK A01 T01121049  RH  032%=      5-min Rain = 0
KTH1 140132Z 04004KT 11/M05 A3029 RMK A01 T01111049  RH  032%=      5-min Rain = 0
KTH1 140133Z 04004KT 11/M05 A3029 RMK A01 T01111049  RH  032%=      5-min Rain = 0
KTH1 140134Z 04004KT 11/M05 A3029 RMK A01 T01111049  RH  032%=      5-min Rain = 0
KTH1 140135Z 04004KT 11/M05 A3029 RMK A01 T01111049  RH  032%=      5-min Rain = 0
KTH1 140136Z 04004KT 11/M05 A3029 RMK A01 T01111049  RH  032%=      5-min Rain = 0
KTH1 140137Z 04003KT 11/M05 A3029 RMK A01 T01111049  RH  032%=      5-min Rain = 0
KTH1 140138Z 04004KT 11/M05 A3029 RMK A01 T01101049  RH  032%=      5-min Rain = 0
KTH1 140139Z 03004KT 11/M05 A3029 RMK A01 T01101049  RH  032%=      5-min Rain = 0
KTH1 140140Z 04004KT 11/M05 A3029 RMK A01 T01091049  RH  033%=      5-min Rain = 0
KTH1 140141Z 04004KT 11/M05 A303 RMK A01 T01091049  RH  033%=      5-min Rain = 0
KTH1 140142Z 04004KT 11/M05 A303 RMK A01 T01081049  RH  033%=      5-min Rain = 0
KTH1 140143Z 04003KT 11/M05 A303 RMK A01 T01091049  RH  033%=      5-min Rain = 0
KTH1 140144Z 04004KT 11/M05 A303 RMK A01 T01081050  RH  033%=      5-min Rain = 0
KTH1 140145Z 05003KT 11/M05 A303 RMK A01 T01081051  RH  032%=      5-min Rain = 0
KTH1 140146Z 05003KT 11/M05 A303 RMK A01 T01081051  RH  032%=      5-min Rain = 0
KTH1 140147Z 05003KT 11/M05 A303 RMK A01 T01081051  RH  032%=      5-min Rain = 0
KTH1 140148Z 05003KT 11/M05 A303 RMK A01 T01081051  RH  032%=      5-min Rain = 0
KTH1 140149Z 06003KT 11/M05 A303 RMK A01 T01081050  RH  032%=      5-min Rain = 0
KTH1 140150Z 06002KT 11/M05 A303 RMK A01 T01081050  RH  033%=      5-min Rain = 0
KTH1 140151Z 06002KT 11/M05 A303 RMK A01 T01081051  RH  033%=      5-min Rain = 0
KTH1 140152Z 05003KT 11/M05 A303 RMK A01 T01071051  RH  033%=      5-min Rain = 0
KTH1 140153Z 05003KT 11/M05 A303 RMK A01 T01071051  RH  032%=      5-min Rain = 0
KTH1 140154Z 05003KT 11/M05 A303 RMK A01 T01071052  RH  032%=      5-min Rain = 0
KTH1 140155Z 04003KT 11/M05 A303 RMK A01 T01071051  RH  032%=      5-min Rain = 0
KTH1 140156Z 04003KT 11/M05 A303 RMK A01 T01071052  RH  032%=      5-min Rain = 0
KTH1 140157Z 04004KT 11/M05 A303 RMK A01 T01071051  RH  033%=      5-min Rain = 0
KTH1 140158Z 04004KT 11/M05 A303 RMK A01 T01061051  RH  033%=      5-min Rain = 0
KTH1 140159Z 04004KT 11/M05 A303 RMK A01 T01061051  RH  033%=      5-min Rain = 0
KTH1 140200Z 04004KT 11/M05 A303 RMK A01 T01061052  RH  033%=      5-min Rain = 0
KTH1 140201Z 04004KT 11/M05 A303 RMK A01 T01061051  RH  033%=      5-min Rain = 0
KTH1 140202Z 04004KT 11/M05 A303 RMK A01 T01051051  RH  033%=      5-min Rain = 0
KTH1 140203Z 04004KT 11/M05 A303 RMK A01 T01051051  RH  033%=      5-min Rain = 0
KTH1 140204Z 04004KT 11/M05 A303 RMK A01 T01051051  RH  033%=      5-min Rain = 0
KTH1 140205Z 04004KT 10/M05 A3031 RMK A01 T01041052  RH  033%=      5-min Rain = 0
KTH1 140206Z 04004KT 10/M05 A3031 RMK A01 T01041052  RH  033%=      5-min Rain = 0
KTH1 140207Z 04004KT 11/M05 A3031 RMK A01 T01051052  RH  033%=      5-min Rain = 0
KTH1 140208Z 04004KT 11/M05 A3031 RMK A01 T01051052  RH  033%=      5-min Rain = 0
KTH1 140209Z 04004KT 10/M05 A3031 RMK A01 T01041052  RH  033%=      5-min Rain = 0
KTH1 140210Z 03004KT 10/M05 A3031 RMK A01 T01041052  RH  033%=      5-min Rain = 0
KTH1 140211Z 04004KT 11/M05 A3031 RMK A01 T01051052  RH  033%=      5-min Rain = 0
KTH1 140212Z 04004KT 10/M05 A3031 RMK A01 T01041052  RH  033%=      5-min Rain = 0
KTH1 140213Z 04004KT 10/M05 A3031 RMK A01 T01041053  RH  033%=      5-min Rain = 0
KTH1 140214Z 05004KT 10/M05 A3031 RMK A01 T01041053  RH  033%=      5-min Rain = 0
KTH1 140215Z 05004KT 10/M05 A3031 RMK A01 T01041053  RH  033%=      5-min Rain = 0
KTH1 140216Z 05004KT 10/M05 A3031 RMK A01 T01041053  RH  033%=      5-min Rain = 0
KTH1 140217Z 05004KT 10/M05 A3031 RMK A01 T01031054  RH  033%=      5-min Rain = 0
KTH1 140218Z 05004KT 10/M05 A3031 RMK A01 T01031054  RH  033%=      5-min Rain = 0
KTH1 140219Z 05004KT 10/M05 A3031 RMK A01 T01031054  RH  033%=      5-min Rain = 0
KTH1 140220Z 05003KT 10/M05 A3031 RMK A01 T01031053  RH  033%=      5-min Rain = 0
KTH1 140221Z 06003KT 10/M05 A3031 RMK A01 T01031054  RH  033%=      5-min Rain = 0
KTH1 140222Z 05003KT 10/M05 A3031 RMK A01 T01021054  RH  033%=      5-min Rain = 0
KTH1 140223Z 06003KT 10/M05 A3031 RMK A01 T01021053  RH  033%=      5-min Rain = 0
KTH1 140224Z 06003KT 10/M05 A3031 RMK A01 T01021053  RH  033%=      5-min Rain = 0
KTH1 140225Z 06003KT 10/M05 A3031 RMK A01 T01021052  RH  033%=      5-min Rain = 0
KTH1 140226Z 05003KT 10/M05 A3031 RMK A01 T01011052  RH  034%=      5-min Rain = 0
KTH1 140227Z 05003KT 10/M05 A3031 RMK A01 T01021052  RH  034%=      5-min Rain = 0
KTH1 140228Z 06003KT 10/M05 A3031 RMK A01 T01021052  RH  034%=      5-min Rain = 0
KTH1 140229Z 06003KT 10/M05 A3031 RMK A01 T01011052  RH  034%=      5-min Rain = 0
KTH1 140230Z 07003KT 10/M05 A3031 RMK A01 T01011052  RH  034%=      5-min Rain = 0
KTH1 140231Z 07002KT 10/M05 A3032 RMK A01 T01011052  RH  034%=      5-min Rain = 0
KTH1 140232Z 07002KT 10/M05 A3032 RMK A01 T01001051  RH  034%=      5-min Rain = 0
KTH1 140233Z 07002KT 10/M05 A3032 RMK A01 T01001051  RH  034%=      5-min Rain = 0
KTH1 140234Z 07002KT 10/M05 A3032 RMK A01 T00991051  RH  034%=      5-min Rain = 0
KTH1 140235Z 08002KT 10/M05 A3032 RMK A01 T00991051  RH  034%=      5-min Rain = 0
KTH1 140236Z 08002KT 10/M05 A3032 RMK A01 T00981050  RH  035%=      5-min Rain = 0
KTH1 140237Z 06002KT 10/M05 A3032 RMK A01 T00981050  RH  035%=      5-min Rain = 0
KTH1 140238Z 06002KT 10/M05 A3032 RMK A01 T00961051  RH  035%=      5-min Rain = 0
KTH1 140239Z 05002KT 10/M05 A3032 RMK A01 T00961051  RH  035%=      5-min Rain = 0
KTH1 140240Z 05002KT 10/M05 A3032 RMK A01 T00951052  RH  035%=      5-min Rain = 0
KTH1 140241Z 05002KT 10/M05 A3032 RMK A01 T00951053  RH  035%=      5-min Rain = 0
KTH1 140242Z 05002KT 10/M05 A3032 RMK A01 T00951053  RH  035%=      5-min Rain = 0
KTH1 140243Z 05002KT 10/M05 A3032 RMK A01 T00951054  RH  034%=      5-min Rain = 0
KTH1 140244Z 05002KT 10/M06 A3032 RMK A01 T00951055  RH  034%=      5-min Rain = 0
KTH1 140245Z 04002KT 10/M06 A3032 RMK A01 T00961055  RH  034%=      5-min Rain = 0
KTH1 140246Z 04002KT 10/M06 A3032 RMK A01 T00961055  RH  034%=      5-min Rain = 0
KTH1 140247Z 05003KT 10/M06 A3032 RMK A01 T00971055  RH  034%=      5-min Rain = 0
KTH1 140248Z 04003KT 10/M06 A3032 RMK A01 T00971056  RH  034%=      5-min Rain = 0
KTH1 140249Z 04003KT 10/M06 A3032 RMK A01 T00981055  RH  033%=      5-min Rain = 0
KTH1 140250Z 04003KT 10/M06 A3032 RMK A01 T00981055  RH  033%=      5-min Rain = 0
KTH1 140251Z 05003KT 10/M06 A3032 RMK A01 T00991055  RH  033%=      5-min Rain = 0
KTH1 140252Z 05003KT 10/M06 A3032 RMK A01 T00981056  RH  033%=      5-min Rain = 0
KTH1 140253Z 05003KT 10/M06 A3032 RMK A01 T00981057  RH  033%=      5-min Rain = 0
KTH1 140254Z 04003KT 10/M06 A3032 RMK A01 T00981057  RH  033%=      5-min Rain = 0
KTH1 140255Z 04003KT 10/M06 A3032 RMK A01 T00971057  RH  033%=      5-min Rain = 0
KTH1 140256Z 05003KT 10/M06 A3032 RMK A01 T00971057  RH  033%=      5-min Rain = 0
KTH1 140257Z 05003KT 10/M06 A3032 RMK A01 T00971057  RH  033%=      5-min Rain = 0
KTH1 140258Z 04002KT 10/M06 A3032 RMK A01 T00961058  RH  033%=      5-min Rain = 0
KTH1 140259Z 04002KT 10/M06 A3033 RMK A01 T00961058  RH  033%=      5-min Rain = 0
KTH1 140300Z 04002KT 10/M06 A3033 RMK A01 T00951057  RH  034%=      5-min Rain = 0
KTH1 140301Z 04002KT 10/M06 A3033 RMK A01 T00951057  RH  034%=      5-min Rain = 0
KTH1 140302Z 04002KT 10/M06 A3033 RMK A01 T00951057  RH  034%=      5-min Rain = 0
KTH1 140303Z 04002KT 10/M06 A3033 RMK A01 T00951058  RH  033%=      5-min Rain = 0
KTH1 140304Z 04002KT 10/M06 A3033 RMK A01 T00961057  RH  034%=      5-min Rain = 0
KTH1 140305Z 04002KT 10/M06 A3033 RMK A01 T00961057  RH  034%=      5-min Rain = 0
KTH1 140306Z 04002KT 10/M05 A3033 RMK A01 T00961054  RH  034%=      5-min Rain = 0
KTH1 140307Z 03002KT 10/M04 A3032 RMK A01 T00961037  RH  039%=      5-min Rain = 0
KTH1 140308Z 03001KT 10/M01 A3032 RMK A01 T00961011  RH  047%=      5-min Rain = 0
KTH1 140309Z 01001KT 10/M01 A3033 RMK A01 T00951009  RH  048%=      5-min Rain = 0
KTH1 140310Z 01001KT 09/M02 A3033 RMK A01 T00941015  RH  047%=      5-min Rain = 0
KTH1 140311Z 36001KT 09/M01 A3033 RMK A01 T00931006  RH  050%=      5-min Rain = 0
KTH1 140312Z 33001KT 09/00 A3033 RMK A01 T00920002  RH  054%=      5-min Rain = 0
KTH1 140313Z 32001KT 09/00 A3033 RMK A01 T00910004  RH  055%=      5-min Rain = 0
KTH1 140314Z 31001KT 09/01 A3033 RMK A01 T00900007  RH  056%=      5-min Rain = 0
KTH1 140315Z 33001KT 09/01 A3033 RMK A01 T00890005  RH  056%=      5-min Rain = 0
KTH1 140316Z 00001KT 09/00 A3033 RMK A01 T00880004  RH  056%=      5-min Rain = 0
KTH1 140317Z 36001KT 09/01 A3033 RMK A01 T00870005  RH  056%=      5-min Rain = 0
KTH1 140318Z 35002KT 09/01 A3033 RMK A01 T00870006  RH  057%=      5-min Rain = 0
KTH1 140319Z 34002KT 09/01 A3033 RMK A01 T00860009  RH  058%=      5-min Rain = 0
KTH1 140320Z 33002KT 09/01 A3033 RMK A01 T00850012  RH  060%=      5-min Rain = 0
KTH1 140321Z 33002KT 08/01 A3033 RMK A01 T00840010  RH  060%=      5-min Rain = 0
KTH1 140322Z 34002KT 08/00 A3033 RMK A01 T00830003  RH  057%=      5-min Rain = 0
KTH1 140323Z 00002KT 08/M01 A3033 RMK A01 T00811006  RH  054%=      5-min Rain = 0
KTH1 140324Z 36002KT 08/M01 A3033 RMK A01 T00811005  RH  055%=      5-min Rain = 0
KTH1 140325Z 00001KT 08/M01 A3033 RMK A01 T00801005  RH  055%=      5-min Rain = 0
KTH1 140326Z 01002KT 08/M01 A3033 RMK A01 T00791013  RH  052%=      5-min Rain = 0
KTH1 140327Z 02003KT 08/M01 A3033 RMK A01 T00791006  RH  055%=      5-min Rain = 0
KTH1 140328Z 02002KT 08/01 A3033 RMK A01 T00780005  RH  060%=      5-min Rain = 0
KTH1 140329Z 02002KT 08/01 A3033 RMK A01 T00780014  RH  064%=      5-min Rain = 0
KTH1 140330Z 02002KT 08/02 A3033 RMK A01 T00780018  RH  066%=      5-min Rain = 0
KTH1 140331Z 02002KT 08/02 A3033 RMK A01 T00780015  RH  064%=      5-min Rain = 0
KTH1 140332Z 03002KT 08/01 A3033 RMK A01 T00780011  RH  062%=      5-min Rain = 0
KTH1 140333Z 03002KT 08/01 A3033 RMK A01 T00780007  RH  061%=      5-min Rain = 0
KTH1 140334Z 03002KT 08/01 A3033 RMK A01 T00780006  RH  061%=      5-min Rain = 0
KTH1 140335Z 03002KT 08/01 A3033 RMK A01 T00770007  RH  061%=      5-min Rain = 0
KTH1 140336Z 03002KT 08/01 A3033 RMK A01 T00770012  RH  063%=      5-min Rain = 0
KTH1 140337Z 03002KT 08/01 A3033 RMK A01 T00770009  RH  062%=      5-min Rain = 0
KTH1 140338Z 04002KT 08/01 A3033 RMK A01 T00780007  RH  061%=      5-min Rain = 0
KTH1 140339Z 04002KT 08/01 A3033 RMK A01 T00780012  RH  063%=      5-min Rain = 0
KTH1 140340Z 03002KT 08/01 A3033 RMK A01 T00790012  RH  063%=      5-min Rain = 0
KTH1 140341Z 03002KT 08/01 A3033 RMK A01 T00790012  RH  063%=      5-min Rain = 0
KTH1 140342Z 01001KT 08/02 A3033 RMK A01 T00790015  RH  064%=      5-min Rain = 0
KTH1 140343Z 36002KT 08/02 A3033 RMK A01 T00800023  RH  067%=      5-min Rain = 0
KTH1 140344Z 32002KT 08/03 A3033 RMK A01 T00810029  RH  070%=      5-min Rain = 0
KTH1 140345Z 30002KT 08/03 A3033 RMK A01 T00810029  RH  070%=      5-min Rain = 0
KTH1 140346Z 31001KT 08/03 A3033 RMK A01 T00800025  RH  068%=      5-min Rain = 0
KTH1 140347Z 30002KT 08/02 A3033 RMK A01 T00790022  RH  067%=      5-min Rain = 0
KTH1 140348Z 31001KT 08/02 A3033 RMK A01 T00780020  RH  067%=      5-min Rain = 0
KTH1 140349Z 31001KT 08/02 A3034 RMK A01 T00770018  RH  066%=      5-min Rain = 0
KTH1 140350Z 31001KT 08/02 A3034 RMK A01 T00760017  RH  066%=      5-min Rain = 0
KTH1 140351Z 30002KT 08/02 A3034 RMK A01 T00760017  RH  066%=      5-min Rain = 0
KTH1 140352Z 30001KT 08/02 A3034 RMK A01 T00760015  RH  065%=      5-min Rain = 0
KTH1 140353Z 30001KT 08/01 A3034 RMK A01 T00750011  RH  064%=      5-min Rain = 0
KTH1 140354Z 31001KT 08/01 A3034 RMK A01 T00750010  RH  063%=      5-min Rain = 0
KTH1 140355Z 33001KT 08/01 A3034 RMK A01 T00750008  RH  063%=      5-min Rain = 0
KTH1 140356Z 29001KT 07/01 A3034 RMK A01 T00740007  RH  063%=      5-min Rain = 0
KTH1 140357Z 30001KT 07/01 A3034 RMK A01 T00730007  RH  062%=      5-min Rain = 0
KTH1 140358Z 31001KT 07/01 A3034 RMK A01 T00730007  RH  063%=      5-min Rain = 0
KTH1 140359Z 35001KT 07/01 A3034 RMK A01 T00710006  RH  063%=      5-min Rain = 0
KTH1 140400Z 33001KT 07/01 A3034 RMK A01 T00720006  RH  063%=      5-min Rain = 0
KTH1 140401Z 34000KT 07/00 A3034 RMK A01 T00710004  RH  063%=      5-min Rain = 0
KTH1 140402Z 31000KT 07/00 A3034 RMK A01 T00710003  RH  062%=      5-min Rain = 0
KTH1 140403Z 30001KT 07/00 A3034 RMK A01 T00700000  RH  061%=      5-min Rain = 0
KTH1 140404Z 30001KT 07/M00 A3034 RMK A01 T00691002  RH  061%=      5-min Rain = 0
KTH1 140405Z 30002KT 07/M00 A3034 RMK A01 T00681001  RH  061%=      5-min Rain = 0
KTH1 140406Z 30002KT 07/00 A3034 RMK A01 T00680000  RH  062%=      5-min Rain = 0
KTH1 140407Z 28002KT 07/00 A3034 RMK A01 T006700-0  RH  062%=      5-min Rain = 0
KTH1 140408Z 29002KT 07/M00 A3034 RMK A01 T00671001  RH  062%=      5-min Rain = 0
KTH1 140409Z 30001KT 07/M00 A3034 RMK A01 T00671004  RH  060%=      5-min Rain = 0
KTH1 140410Z 27001KT 07/M01 A3034 RMK A01 T00671009  RH  058%=      5-min Rain = 0
KTH1 140411Z 28000KT 07/M01 A3034 RMK A01 T00681014  RH  056%=      5-min Rain = 0
KTH1 140412Z 31000KT 07/M02 A3034 RMK A01 T00671017  RH  055%=      5-min Rain = 0
KTH1 140413Z 34000KT 07/M02 A3034 RMK A01 T00671016  RH  055%=      5-min Rain = 0
KTH1 140414Z 31000KT 07/M01 A3034 RMK A01 T00671014  RH  056%=      5-min Rain = 0
KTH1 140415Z 32001KT 07/M02 A3034 RMK A01 T00671016  RH  055%=      5-min Rain = 0
KTH1 140416Z 33001KT 07/M02 A3034 RMK A01 T00661017  RH  055%=      5-min Rain = 0
KTH1 140417Z 31001KT 07/M02 A3034 RMK A01 T00661015  RH  056%=      5-min Rain = 0
KTH1 140418Z 32001KT 07/M01 A3034 RMK A01 T00651013  RH  057%=      5-min Rain = 0
KTH1 140419Z 31001KT 07/M01 A3034 RMK A01 T00651011  RH  058%=      5-min Rain = 0
KTH1 140420Z 30001KT 07/M01 A3034 RMK A01 T00651009  RH  059%=      5-min Rain = 0
KTH1 140421Z 30001KT 07/M01 A3034 RMK A01 T00651008  RH  060%=      5-min Rain = 0
KTH1 140422Z 29001KT 07/M01 A3034 RMK A01 T00651005  RH  061%=      5-min Rain = 0
KTH1 140423Z 30000KT 07/M00 A3034 RMK A01 T00651001  RH  063%=      5-min Rain = 0
KTH1 140424Z 29001KT 07/00 A3034 RMK A01 T00650000  RH  063%=      5-min Rain = 0
KTH1 140425Z 01000KT 07/00 A3034 RMK A01 T00650001  RH  064%=      5-min Rain = 0
KTH1 140426Z 28001KT 07/M00 A3034 RMK A01 T00651001  RH  063%=      5-min Rain = 0
KTH1 140427Z 30000KT 06/M00 A3034 RMK A01 T00641002  RH  063%=      5-min Rain = 0
KTH1 140428Z 31001KT 06/M00 A3033 RMK A01 T00641003  RH  062%=      5-min Rain = 0
KTH1 140429Z 28001KT 06/M00 A3033 RMK A01 T00641003  RH  062%=      5-min Rain = 0
KTH1 140430Z 30001KT 06/M00 A3033 RMK A01 T00641003  RH  062%=      5-min Rain = 0
KTH1 140431Z 28000KT 06/M00 A3033 RMK A01 T00631002  RH  063%=      5-min Rain = 0
KTH1 140432Z 08000KT 06/M00 A3034 RMK A01 T00631002  RH  063%=      5-min Rain = 0
KTH1 140433Z 25000KT 06/M01 A3034 RMK A01 T00631008  RH  060%=      5-min Rain = 0
KTH1 140434Z 26001KT 06/M01 A3034 RMK A01 T00621006  RH  062%=      5-min Rain = 0
KTH1 140435Z 26001KT 06/M00 A3033 RMK A01 T00611003  RH  063%=      5-min Rain = 0
KTH1 140436Z 27000KT 06/M00 A3033 RMK A01 T00601003  RH  064%=      5-min Rain = 0
KTH1 140437Z 00000KT 06/M00 A3033 RMK A01 T00591004  RH  064%=      5-min Rain = 0
KTH1 140438Z 26000KT 06/M00 A3033 RMK A01 T00591003  RH  064%=      5-min Rain = 0
KTH1 140439Z 26001KT 06/M00 A3033 RMK A01 T00581003  RH  065%=      5-min Rain = 0
KTH1 140440Z 25000KT 06/M00 A3033 RMK A01 T00581002  RH  066%=      5-min Rain = 0
KTH1 140441Z 00000KT 06/M00 A3033 RMK A01 T00571001  RH  066%=      5-min Rain = 0
KTH1 140442Z 28000KT 06/00 A3033 RMK A01 T00570001  RH  067%=      5-min Rain = 0
KTH1 140443Z 27000KT 06/00 A3033 RMK A01 T00570001  RH  067%=      5-min Rain = 0
KTH1 140444Z 30000KT 06/M00 A3034 RMK A01 T00571001  RH  067%=      5-min Rain = 0
KTH1 140445Z 32001KT 06/M00 A3034 RMK A01 T00571003  RH  066%=      5-min Rain = 0
KTH1 140446Z 33003KT 06/M00 A3034 RMK A01 T00561002  RH  066%=      5-min Rain = 0
KTH1 140447Z 31003KT 06/00 A3034 RMK A01 T00560002  RH  068%=      5-min Rain = 0
KTH1 140448Z 31001KT 06/01 A3034 RMK A01 T00570007  RH  070%=      5-min Rain = 0
KTH1 140449Z 32000KT 06/01 A3034 RMK A01 T00570009  RH  071%=      5-min Rain = 0
KTH1 140450Z 27001KT 06/01 A3034 RMK A01 T00590014  RH  073%=      5-min Rain = 0
KTH1 140451Z 36002KT 06/01 A3034 RMK A01 T00590013  RH  072%=      5-min Rain = 0
KTH1 140452Z 33001KT 06/01 A3034 RMK A01 T00590010  RH  071%=      5-min Rain = 0
KTH1 140453Z 33001KT 06/01 A3034 RMK A01 T00590011  RH  071%=      5-min Rain = 0
KTH1 140454Z 30001KT 06/01 A3034 RMK A01 T00590013  RH  072%=      5-min Rain = 0
KTH1 140455Z 30001KT 06/01 A3034 RMK A01 T00590011  RH  071%=      5-min Rain = 0
KTH1 140456Z 32002KT 06/01 A3034 RMK A01 T00580009  RH  071%=      5-min Rain = 0
KTH1 140457Z 30001KT 06/01 A3034 RMK A01 T00590009  RH  071%=      5-min Rain = 0
KTH1 140458Z 32001KT 06/01 A3034 RMK A01 T00580010  RH  071%=      5-min Rain = 0
KTH1 140459Z 32001KT 06/01 A3034 RMK A01 T00580012  RH  073%=      5-min Rain = 0
KTH1 140500Z 32002KT 06/01 A3034 RMK A01 T00570014  RH  074%=      5-min Rain = 0

Page generated in 0.0529 seconds.